Home > Products > Valid Products > TAF

000
FTUS45 KSLC 061435 AAB
TAFBCE
TAF AMD
KBCE 061435Z 0615/0712 26008KT P6SM OVC100
     FM061600 22012KT P6SM SCT035 BKN070
     FM061900 20013G20KT P6SM VCSH SCT060 BKN120
     FM070100 24010KT P6SM SCT060 BKN120=



000
FTUS45 KSLC 061435 AAB
TAFBCE
TAF AMD
KBCE 061435Z 0615/0712 26008KT P6SM OVC100
     FM061600 22012KT P6SM SCT035 BKN070
     FM061900 20013G20KT P6SM VCSH SCT060 BKN120
     FM070100 24010KT P6SM SCT060 BKN120=



000
FTUS45 KSLC 061434 AAB
TAFCDC
TAF AMD
KCDC 061434Z 0615/0712 18008KT P6SM BKN060
     FM061600 22018G27KT P6SM SCT070 BKN080
     FM070300 19010KT P6SM SCT080 BKN100=



000
FTUS45 KSLC 061434 AAB
TAFCDC
TAF AMD
KCDC 061434Z 0615/0712 18008KT P6SM BKN060
     FM061600 22018G27KT P6SM SCT070 BKN080
     FM070300 19010KT P6SM SCT080 BKN100=



000
FTUS45 KSLC 061430 AAC
TAFLGU
TAF AMD
KLGU 061430Z 0615/0712 VRB04KT P6SM SCT080 SCT120
     FM061900 27005KT P6SM VCSH SCT060 BKN080
     FM062100 VRB05KT P6SM -SHRA SCT060 BKN080=



000
FTUS45 KSLC 061430 AAC
TAFLGU
TAF AMD
KLGU 061430Z 0615/0712 VRB04KT P6SM SCT080 SCT120
     FM061900 27005KT P6SM VCSH SCT060 BKN080
     FM062100 VRB05KT P6SM -SHRA SCT060 BKN080=



000
FTUS45 KSLC 061430 AAC
TAFLGU
TAF AMD
KLGU 061430Z 0615/0712 VRB04KT P6SM SCT080 SCT120
     FM061900 27005KT P6SM VCSH SCT060 BKN080
     FM062100 VRB05KT P6SM -SHRA SCT060 BKN080=



000
FTUS45 KSLC 061430 AAC
TAFLGU
TAF AMD
KLGU 061430Z 0615/0712 VRB04KT P6SM SCT080 SCT120
     FM061900 27005KT P6SM VCSH SCT060 BKN080
     FM062100 VRB05KT P6SM -SHRA SCT060 BKN080=



000
FTUS45 KSLC 061416 AAC
TAFSLC
TAF AMD
KSLC 061416Z 0614/0718 16008KT P6SM SCT120 SCT250
     FM061900 18008KT P6SM VCSH SCT050 SCT100 OVC200
     FM062200 18012KT 6SM RA BKN050 OVC080
     FM070300 15005KT P6SM VCSH BKN050 BKN080=



000
FTUS45 KSLC 061416 AAC
TAFSLC
TAF AMD
KSLC 061416Z 0614/0718 16008KT P6SM SCT120 SCT250
     FM061900 18008KT P6SM VCSH SCT050 SCT100 OVC200
     FM062200 18012KT 6SM RA BKN050 OVC080
     FM070300 15005KT P6SM VCSH BKN050 BKN080=



000
FTUS45 KSLC 061313 AAB
TAFLGU
TAF AMD
KLGU 061313Z 0613/0712 VRB04KT P6SM SCT080 BKN120
      TEMPO 0613/0615 1/4SM FG VV001
     FM061900 27005KT P6SM VCSH SCT060 BKN080
     FM062100 VRB05KT P6SM -SHRA SCT060 BKN080=



000
FTUS45 KSLC 061313 AAB
TAFLGU
TAF AMD
KLGU 061313Z 0613/0712 VRB04KT P6SM SCT080 BKN120
      TEMPO 0613/0615 1/4SM FG VV001
     FM061900 27005KT P6SM VCSH SCT060 BKN080
     FM062100 VRB05KT P6SM -SHRA SCT060 BKN080=



000
FTUS45 KSLC 061313 AAB
TAFLGU
TAF AMD
KLGU 061313Z 0613/0712 VRB04KT P6SM SCT080 BKN120
      TEMPO 0613/0615 1/4SM FG VV001
     FM061900 27005KT P6SM VCSH SCT060 BKN080
     FM062100 VRB05KT P6SM -SHRA SCT060 BKN080=



000
FTUS45 KSLC 061313 AAB
TAFLGU
TAF AMD
KLGU 061313Z 0613/0712 VRB04KT P6SM SCT080 BKN120
      TEMPO 0613/0615 1/4SM FG VV001
     FM061900 27005KT P6SM VCSH SCT060 BKN080
     FM062100 VRB05KT P6SM -SHRA SCT060 BKN080=



000
FTUS45 KSLC 061248 AAA
TAFPVU
TAF AMD
KPVU 061248Z 0613/0712 13005KT P6SM VCSH FEW015 BKN050
     FM061800 16008KT P6SM -SHRA VCTS SCT040CB BKN060
     FM062300 22008KT P6SM -SHRA SCT035 BKN050
     FM070200 33007KT P6SM VCSH SCT025 OVC040
      AMD LTD TO CLD VIS AND WIND=



000
FTUS45 KSLC 061248 AAA
TAFPVU
TAF AMD
KPVU 061248Z 0613/0712 13005KT P6SM VCSH FEW015 BKN050
     FM061800 16008KT P6SM -SHRA VCTS SCT040CB BKN060
     FM062300 22008KT P6SM -SHRA SCT035 BKN050
     FM070200 33007KT P6SM VCSH SCT025 OVC040
      AMD LTD TO CLD VIS AND WIND=



000
FTUS45 KSLC 061248 AAA
TAFPVU
TAF AMD
KPVU 061248Z 0613/0712 13005KT P6SM VCSH FEW015 BKN050
     FM061800 16008KT P6SM -SHRA VCTS SCT040CB BKN060
     FM062300 22008KT P6SM -SHRA SCT035 BKN050
     FM070200 33007KT P6SM VCSH SCT025 OVC040
      AMD LTD TO CLD VIS AND WIND=



000
FTUS45 KSLC 061248 AAA
TAFPVU
TAF AMD
KPVU 061248Z 0613/0712 13005KT P6SM VCSH FEW015 BKN050
     FM061800 16008KT P6SM -SHRA VCTS SCT040CB BKN060
     FM062300 22008KT P6SM -SHRA SCT035 BKN050
     FM070200 33007KT P6SM VCSH SCT025 OVC040
      AMD LTD TO CLD VIS AND WIND=



000
FTUS45 KSLC 061246 AAA
TAFBCE
TAF AMD
KBCE 061246Z 0613/0712 33007KT P6SM VCSH SCT020 OVC050
      TEMPO 0613/0616 5SM -SHRA SCT015 OVC025
     FM061600 16010KT P6SM SCT035 BKN070
     FM061900 20013G20KT P6SM VCSH SCT060 BKN120
     FM070100 24010KT P6SM SCT060 BKN120=



000
FTUS45 KSLC 061246 AAA
TAFBCE
TAF AMD
KBCE 061246Z 0613/0712 33007KT P6SM VCSH SCT020 OVC050
      TEMPO 0613/0616 5SM -SHRA SCT015 OVC025
     FM061600 16010KT P6SM SCT035 BKN070
     FM061900 20013G20KT P6SM VCSH SCT060 BKN120
     FM070100 24010KT P6SM SCT060 BKN120=



000
FTUS45 KSLC 061246 AAA
TAFBCE
TAF AMD
KBCE 061246Z 0613/0712 33007KT P6SM VCSH SCT020 OVC050
      TEMPO 0613/0616 5SM -SHRA SCT015 OVC025
     FM061600 16010KT P6SM SCT035 BKN070
     FM061900 20013G20KT P6SM VCSH SCT060 BKN120
     FM070100 24010KT P6SM SCT060 BKN120=



000
FTUS45 KSLC 061246 AAA
TAFBCE
TAF AMD
KBCE 061246Z 0613/0712 33007KT P6SM VCSH SCT020 OVC050
      TEMPO 0613/0616 5SM -SHRA SCT015 OVC025
     FM061600 16010KT P6SM SCT035 BKN070
     FM061900 20013G20KT P6SM VCSH SCT060 BKN120
     FM070100 24010KT P6SM SCT060 BKN120=



000
FTUS45 KSLC 061242 AAA
TAFLGU
TAF AMD
KLGU 061242Z 0613/0712 VRB04KT P6SM SCT080 BKN120
      TEMPO 0613/0615 1SM BR BKN002
     FM061900 27005KT P6SM VCSH SCT060 BKN080
     FM062100 VRB05KT P6SM -SHRA SCT060 BKN080=



000
FTUS45 KSLC 061242 AAA
TAFLGU
TAF AMD
KLGU 061242Z 0613/0712 VRB04KT P6SM SCT080 BKN120
      TEMPO 0613/0615 1SM BR BKN002
     FM061900 27005KT P6SM VCSH SCT060 BKN080
     FM062100 VRB05KT P6SM -SHRA SCT060 BKN080=



000
FTUS45 KSLC 061242 AAA
TAFLGU
TAF AMD
KLGU 061242Z 0613/0712 VRB04KT P6SM SCT080 BKN120
      TEMPO 0613/0615 1SM BR BKN002
     FM061900 27005KT P6SM VCSH SCT060 BKN080
     FM062100 VRB05KT P6SM -SHRA SCT060 BKN080=



000
FTUS45 KSLC 061242 AAA
TAFLGU
TAF AMD
KLGU 061242Z 0613/0712 VRB04KT P6SM SCT080 BKN120
      TEMPO 0613/0615 1SM BR BKN002
     FM061900 27005KT P6SM VCSH SCT060 BKN080
     FM062100 VRB05KT P6SM -SHRA SCT060 BKN080=



000
FTUS45 KSLC 061235 AAA
TAFCDC
TAF AMD
KCDC 061235Z 0613/0712 24006KT P6SM -SHRA SCT025 OVC060
      TEMPO 0613/0615 SCT020 OVC025
     FM061600 22018G27KT P6SM SCT070 BKN080
     FM070300 19010KT P6SM SCT080 BKN100=



000
FTUS45 KSLC 061235 AAA
TAFCDC
TAF AMD
KCDC 061235Z 0613/0712 24006KT P6SM -SHRA SCT025 OVC060
      TEMPO 0613/0615 SCT020 OVC025
     FM061600 22018G27KT P6SM SCT070 BKN080
     FM070300 19010KT P6SM SCT080 BKN100=



000
FTUS45 KSLC 061235 AAA
TAFCDC
TAF AMD
KCDC 061235Z 0613/0712 24006KT P6SM -SHRA SCT025 OVC060
      TEMPO 0613/0615 SCT020 OVC025
     FM061600 22018G27KT P6SM SCT070 BKN080
     FM070300 19010KT P6SM SCT080 BKN100=



000
FTUS45 KSLC 061235 AAA
TAFCDC
TAF AMD
KCDC 061235Z 0613/0712 24006KT P6SM -SHRA SCT025 OVC060
      TEMPO 0613/0615 SCT020 OVC025
     FM061600 22018G27KT P6SM SCT070 BKN080
     FM070300 19010KT P6SM SCT080 BKN100=



000
FTUS45 KSLC 061138 AAA
TAFOGD
TAF AMD
KOGD 061138Z 0612/0712 17006KT P6SM SCT030 BKN120
      TEMPO 0612/0614 BKN030 OVC080
     FM061900 22006KT P6SM -SHRA VCTS SCT060CB BKN080
     FM070000 22006KT P6SM -SHRA SCT060 BKN080
     FM070300 16005KT P6SM VCSH SCT060 BKN080=



000
FTUS45 KSLC 061138 AAA
TAFOGD
TAF AMD
KOGD 061138Z 0612/0712 17006KT P6SM SCT030 BKN120
      TEMPO 0612/0614 BKN030 OVC080
     FM061900 22006KT P6SM -SHRA VCTS SCT060CB BKN080
     FM070000 22006KT P6SM -SHRA SCT060 BKN080
     FM070300 16005KT P6SM VCSH SCT060 BKN080=



000
FTUS45 KSLC 061138 AAA
TAFOGD
TAF AMD
KOGD 061138Z 0612/0712 17006KT P6SM SCT030 BKN120
      TEMPO 0612/0614 BKN030 OVC080
     FM061900 22006KT P6SM -SHRA VCTS SCT060CB BKN080
     FM070000 22006KT P6SM -SHRA SCT060 BKN080
     FM070300 16005KT P6SM VCSH SCT060 BKN080=



000
FTUS45 KSLC 061138 AAA
TAFOGD
TAF AMD
KOGD 061138Z 0612/0712 17006KT P6SM SCT030 BKN120
      TEMPO 0612/0614 BKN030 OVC080
     FM061900 22006KT P6SM -SHRA VCTS SCT060CB BKN080
     FM070000 22006KT P6SM -SHRA SCT060 BKN080
     FM070300 16005KT P6SM VCSH SCT060 BKN080=



000
FTUS45 KSLC 061120
TAFSLC
TAF
KSLC 061120Z 0612/0718 15007KT P6SM SCT070 BKN110
     FM061900 32009KT P6SM -SHRA VCTS SCT060CB BKN080
     FM070000 32009KT P6SM -SHRA SCT060 BKN080
     FM070300 15007KT P6SM VCSH SCT060 BKN080=



000
FTUS45 KSLC 061120
TAFCDC
TAF
KCDC 061120Z 0612/0712 24006KT P6SM -SHRA BKN060 BKN080
     FM061600 22018G27KT P6SM SCT070 BKN080
     FM070300 19010KT P6SM SCT080 BKN100=



000
FTUS45 KSLC 061120
TAFOGD
TAF
KOGD 061120Z 0612/0712 17006KT P6SM SCT080 BKN120
     FM061900 22006KT P6SM -SHRA VCTS SCT060CB BKN080
     FM070000 22006KT P6SM -SHRA SCT060 BKN080
     FM070300 16005KT P6SM VCSH SCT060 BKN080=



000
FTUS45 KSLC 061120
TAFSLC
TAF
KSLC 061120Z 0612/0718 15007KT P6SM SCT070 BKN110
     FM061900 32009KT P6SM -SHRA VCTS SCT060CB BKN080
     FM070000 32009KT P6SM -SHRA SCT060 BKN080
     FM070300 15007KT P6SM VCSH SCT060 BKN080=



000
FTUS45 KSLC 061120
TAFPVU
TAF
KPVU 061120Z 0612/0712 16005KT P6SM BKN010
     FM061400 VRB05KT P6SM SCT010 BKN080
     FM061800 22008KT P6SM -SHRA VCTS SCT060CB BKN080
     FM062300 22008KT P6SM -SHRA SCT060 BKN080
     FM070200 33007KT P6SM VCSH SCT060 BKN080
      AMD LTD TO CLD VIS AND WIND=



000
FTUS45 KSLC 061120
TAFBCE
TAF
KBCE 061120Z 0612/0712 33007KT P6SM SCT060 BKN100
     FM061600 16010KT P6SM SCT060 BKN120
     FM061900 20013G20KT P6SM VCSH SCT060 BKN120
     FM070100 24010KT P6SM SCT060 BKN120=



000
FTUS45 KSLC 061120
TAFCDC
TAF
KCDC 061120Z 0612/0712 24006KT P6SM -SHRA BKN060 BKN080
     FM061600 22018G27KT P6SM SCT070 BKN080
     FM070300 19010KT P6SM SCT080 BKN100=



000
FTUS45 KSLC 061120
TAFSLC
TAF
KSLC 061120Z 0612/0718 15007KT P6SM SCT070 BKN110
     FM061900 32009KT P6SM -SHRA VCTS SCT060CB BKN080
     FM070000 32009KT P6SM -SHRA SCT060 BKN080
     FM070300 15007KT P6SM VCSH SCT060 BKN080=



000
FTUS45 KSLC 061120
TAFOGD
TAF
KOGD 061120Z 0612/0712 17006KT P6SM SCT080 BKN120
     FM061900 22006KT P6SM -SHRA VCTS SCT060CB BKN080
     FM070000 22006KT P6SM -SHRA SCT060 BKN080
     FM070300 16005KT P6SM VCSH SCT060 BKN080=



000
FTUS45 KSLC 061120
TAFENV
TAF
KENV 061120Z 0612/0712 VRB05KT P6SM SCT090 BKN100
     FM061400 07006KT P6SM SCT050 BKN080
     FM061800 10008KT P6SM VCSH SCT050 BKN080
     FM070300 33007KT P6SM SCT050 BKN080
      AMD LTD TO CLD VIS AND WIND=



000
FTUS45 KSLC 061120
TAFENV
TAF
KENV 061120Z 0612/0712 VRB05KT P6SM SCT090 BKN100
     FM061400 07006KT P6SM SCT050 BKN080
     FM061800 10008KT P6SM VCSH SCT050 BKN080
     FM070300 33007KT P6SM SCT050 BKN080
      AMD LTD TO CLD VIS AND WIND=



000
FTUS45 KSLC 061120
TAFPVU
TAF
KPVU 061120Z 0612/0712 16005KT P6SM BKN010
     FM061400 VRB05KT P6SM SCT010 BKN080
     FM061800 22008KT P6SM -SHRA VCTS SCT060CB BKN080
     FM062300 22008KT P6SM -SHRA SCT060 BKN080
     FM070200 33007KT P6SM VCSH SCT060 BKN080
      AMD LTD TO CLD VIS AND WIND=



000
FTUS45 KSLC 061120
TAFLGU
TAF
KLGU 061120Z 0612/0712 VRB04KT P6SM SCT080 BKN120
     FM062100 VRB05KT P6SM -SHRA SCT060 BKN080=



000
FTUS45 KSLC 061120
TAFPVU
TAF
KPVU 061120Z 0612/0712 16005KT P6SM BKN010
     FM061400 VRB05KT P6SM SCT010 BKN080
     FM061800 22008KT P6SM -SHRA VCTS SCT060CB BKN080
     FM062300 22008KT P6SM -SHRA SCT060 BKN080
     FM070200 33007KT P6SM VCSH SCT060 BKN080
      AMD LTD TO CLD VIS AND WIND=



000
FTUS45 KSLC 061120
TAFBCE
TAF
KBCE 061120Z 0612/0712 33007KT P6SM SCT060 BKN100
     FM061600 16010KT P6SM SCT060 BKN120
     FM061900 20013G20KT P6SM VCSH SCT060 BKN120
     FM070100 24010KT P6SM SCT060 BKN120=



000
FTUS45 KSLC 061120
TAFCDC
TAF
KCDC 061120Z 0612/0712 24006KT P6SM -SHRA BKN060 BKN080
     FM061600 22018G27KT P6SM SCT070 BKN080
     FM070300 19010KT P6SM SCT080 BKN100=



000
FTUS45 KSLC 061120
TAFENV
TAF
KENV 061120Z 0612/0712 VRB05KT P6SM SCT090 BKN100
     FM061400 07006KT P6SM SCT050 BKN080
     FM061800 10008KT P6SM VCSH SCT050 BKN080
     FM070300 33007KT P6SM SCT050 BKN080
      AMD LTD TO CLD VIS AND WIND=



000
FTUS45 KSLC 061120
TAFOGD
TAF
KOGD 061120Z 0612/0712 17006KT P6SM SCT080 BKN120
     FM061900 22006KT P6SM -SHRA VCTS SCT060CB BKN080
     FM070000 22006KT P6SM -SHRA SCT060 BKN080
     FM070300 16005KT P6SM VCSH SCT060 BKN080=



000
FTUS45 KSLC 061120
TAFOGD
TAF
KOGD 061120Z 0612/0712 17006KT P6SM SCT080 BKN120
     FM061900 22006KT P6SM -SHRA VCTS SCT060CB BKN080
     FM070000 22006KT P6SM -SHRA SCT060 BKN080
     FM070300 16005KT P6SM VCSH SCT060 BKN080=



000
FTUS45 KSLC 061120
TAFBCE
TAF
KBCE 061120Z 0612/0712 33007KT P6SM SCT060 BKN100
     FM061600 16010KT P6SM SCT060 BKN120
     FM061900 20013G20KT P6SM VCSH SCT060 BKN120
     FM070100 24010KT P6SM SCT060 BKN120=



000
FTUS45 KSLC 061120
TAFENV
TAF
KENV 061120Z 0612/0712 VRB05KT P6SM SCT090 BKN100
     FM061400 07006KT P6SM SCT050 BKN080
     FM061800 10008KT P6SM VCSH SCT050 BKN080
     FM070300 33007KT P6SM SCT050 BKN080
      AMD LTD TO CLD VIS AND WIND=



000
FTUS45 KSLC 061120
TAFPVU
TAF
KPVU 061120Z 0612/0712 16005KT P6SM BKN010
     FM061400 VRB05KT P6SM SCT010 BKN080
     FM061800 22008KT P6SM -SHRA VCTS SCT060CB BKN080
     FM062300 22008KT P6SM -SHRA SCT060 BKN080
     FM070200 33007KT P6SM VCSH SCT060 BKN080
      AMD LTD TO CLD VIS AND WIND=



000
FTUS45 KSLC 061120
TAFLGU
TAF
KLGU 061120Z 0612/0712 VRB04KT P6SM SCT080 BKN120
     FM062100 VRB05KT P6SM -SHRA SCT060 BKN080=



000
FTUS45 KSLC 061120
TAFLGU
TAF
KLGU 061120Z 0612/0712 VRB04KT P6SM SCT080 BKN120
     FM062100 VRB05KT P6SM -SHRA SCT060 BKN080=



000
FTUS45 KSLC 061120
TAFSGU
TAF
KSGU 061120Z 0612/0712 VRB05KT P6SM SCT080 BKN100
     FM061900 23018G28KT P6SM SCT080 BKN120
     FM070100 22010KT P6SM SCT080 BKN120
      AMD LTD TO CLD VIS AND WIND=



000
FTUS45 KSLC 061120
TAFSGU
TAF
KSGU 061120Z 0612/0712 VRB05KT P6SM SCT080 BKN100
     FM061900 23018G28KT P6SM SCT080 BKN120
     FM070100 22010KT P6SM SCT080 BKN120
      AMD LTD TO CLD VIS AND WIND=



000
FTUS45 KSLC 061120
TAFSLC
TAF
KSLC 061120Z 0612/0718 15007KT P6SM SCT070 BKN110
     FM061900 32009KT P6SM -SHRA VCTS SCT060CB BKN080
     FM070000 32009KT P6SM -SHRA SCT060 BKN080
     FM070300 15007KT P6SM VCSH SCT060 BKN080=



000
FTUS45 KSLC 061120
TAFLGU
TAF
KLGU 061120Z 0612/0712 VRB04KT P6SM SCT080 BKN120
     FM062100 VRB05KT P6SM -SHRA SCT060 BKN080=



000
FTUS45 KSLC 061120
TAFCDC
TAF
KCDC 061120Z 0612/0712 24006KT P6SM -SHRA BKN060 BKN080
     FM061600 22018G27KT P6SM SCT070 BKN080
     FM070300 19010KT P6SM SCT080 BKN100=



000
FTUS45 KSLC 061120
TAFBCE
TAF
KBCE 061120Z 0612/0712 33007KT P6SM SCT060 BKN100
     FM061600 16010KT P6SM SCT060 BKN120
     FM061900 20013G20KT P6SM VCSH SCT060 BKN120
     FM070100 24010KT P6SM SCT060 BKN120=



000
FTUS45 KSLC 061120
TAFSGU
TAF
KSGU 061120Z 0612/0712 VRB05KT P6SM SCT080 BKN100
     FM061900 23018G28KT P6SM SCT080 BKN120
     FM070100 22010KT P6SM SCT080 BKN120
      AMD LTD TO CLD VIS AND WIND=



000
FTUS45 KSLC 061120
TAFSGU
TAF
KSGU 061120Z 0612/0712 VRB05KT P6SM SCT080 BKN100
     FM061900 23018G28KT P6SM SCT080 BKN120
     FM070100 22010KT P6SM SCT080 BKN120
      AMD LTD TO CLD VIS AND WIND=



000
FTUS45 KSLC 060947 AAB
TAFPVU
TAF AMD
KPVU 060947Z 0610/0706 00000KT P6SM BKN010
     FM062000 22008KT P6SM VCSH SCT060 BKN080
     FM070200 33007KT P6SM VCSH SCT060 BKN080
      AMD LTD TO CLD VIS AND WIND=



000
FTUS45 KSLC 060947 AAB
TAFPVU
TAF AMD
KPVU 060947Z 0610/0706 00000KT P6SM BKN010
     FM062000 22008KT P6SM VCSH SCT060 BKN080
     FM070200 33007KT P6SM VCSH SCT060 BKN080
      AMD LTD TO CLD VIS AND WIND=



000
FTUS45 KSLC 060947 AAB
TAFPVU
TAF AMD
KPVU 060947Z 0610/0706 00000KT P6SM BKN010
     FM062000 22008KT P6SM VCSH SCT060 BKN080
     FM070200 33007KT P6SM VCSH SCT060 BKN080
      AMD LTD TO CLD VIS AND WIND=



000
FTUS45 KSLC 060947 AAB
TAFPVU
TAF AMD
KPVU 060947Z 0610/0706 00000KT P6SM BKN010
     FM062000 22008KT P6SM VCSH SCT060 BKN080
     FM070200 33007KT P6SM VCSH SCT060 BKN080
      AMD LTD TO CLD VIS AND WIND=



000
FTUS45 KSLC 060905 AAB
TAFSLC
TAF AMD
KSLC 060905Z 0609/0712 15007KT P6SM SCT070 BKN110
     FM061900 32009KT P6SM VCSH SCT060 BKN080
     FM070300 15007KT P6SM VCSH SCT060 BKN080=



000
FTUS45 KSLC 060739 AAA
TAFCDC
TAF AMD
KCDC 060739Z 0608/0706 19010KT P6SM -SHRA BKN060 BKN080
     FM061600 22018G27KT P6SM VCSH SCT070 BKN080
     FM062200 22018G27KT P6SM SCT080 BKN100=



000
FTUS45 KSLC 060739 AAB
TAFSGU
TAF AMD
KSGU 060739Z 0608/0706 VRB05KT P6SM SCT060 BKN080
     FM061900 23012G19KT P6SM SCT080 BKN120
     FM070100 22012G22KT P6SM SCT080 BKN120
      AMD LTD TO CLD VIS AND WIND=



000
FTUS45 KSLC 060739 AAB
TAFSGU
TAF AMD
KSGU 060739Z 0608/0706 VRB05KT P6SM SCT060 BKN080
     FM061900 23012G19KT P6SM SCT080 BKN120
     FM070100 22012G22KT P6SM SCT080 BKN120
      AMD LTD TO CLD VIS AND WIND=



000
FTUS45 KSLC 060739 AAB
TAFSGU
TAF AMD
KSGU 060739Z 0608/0706 VRB05KT P6SM SCT060 BKN080
     FM061900 23012G19KT P6SM SCT080 BKN120
     FM070100 22012G22KT P6SM SCT080 BKN120
      AMD LTD TO CLD VIS AND WIND=



000
FTUS45 KSLC 060739 AAA
TAFCDC
TAF AMD
KCDC 060739Z 0608/0706 19010KT P6SM -SHRA BKN060 BKN080
     FM061600 22018G27KT P6SM VCSH SCT070 BKN080
     FM062200 22018G27KT P6SM SCT080 BKN100=



000
FTUS45 KSLC 060739 AAA
TAFCDC
TAF AMD
KCDC 060739Z 0608/0706 19010KT P6SM -SHRA BKN060 BKN080
     FM061600 22018G27KT P6SM VCSH SCT070 BKN080
     FM062200 22018G27KT P6SM SCT080 BKN100=



000
FTUS45 KSLC 060739 AAA
TAFCDC
TAF AMD
KCDC 060739Z 0608/0706 19010KT P6SM -SHRA BKN060 BKN080
     FM061600 22018G27KT P6SM VCSH SCT070 BKN080
     FM062200 22018G27KT P6SM SCT080 BKN100=



000
FTUS45 KSLC 060739 AAB
TAFSGU
TAF AMD
KSGU 060739Z 0608/0706 VRB05KT P6SM SCT060 BKN080
     FM061900 23012G19KT P6SM SCT080 BKN120
     FM070100 22012G22KT P6SM SCT080 BKN120
      AMD LTD TO CLD VIS AND WIND=



000
FTUS45 KSLC 060738 AAA
TAFPVU
TAF AMD
KPVU 060738Z 0608/0706 VRB05KT P6SM -SHRA BKN060 BKN100
     FM060900 33010KT P6SM VCSH SCT060 BKN100
     FM062000 22008KT P6SM VCSH SCT060 BKN080
     FM070200 33007KT P6SM VCSH SCT060 BKN080
      AMD LTD TO CLD VIS AND WIND=



000
FTUS45 KSLC 060738 AAA
TAFPVU
TAF AMD
KPVU 060738Z 0608/0706 VRB05KT P6SM -SHRA BKN060 BKN100
     FM060900 33010KT P6SM VCSH SCT060 BKN100
     FM062000 22008KT P6SM VCSH SCT060 BKN080
     FM070200 33007KT P6SM VCSH SCT060 BKN080
      AMD LTD TO CLD VIS AND WIND=



000
FTUS45 KSLC 060738 AAA
TAFPVU
TAF AMD
KPVU 060738Z 0608/0706 VRB05KT P6SM -SHRA BKN060 BKN100
     FM060900 33010KT P6SM VCSH SCT060 BKN100
     FM062000 22008KT P6SM VCSH SCT060 BKN080
     FM070200 33007KT P6SM VCSH SCT060 BKN080
      AMD LTD TO CLD VIS AND WIND=



000
FTUS45 KSLC 060738 AAA
TAFPVU
TAF AMD
KPVU 060738Z 0608/0706 VRB05KT P6SM -SHRA BKN060 BKN100
     FM060900 33010KT P6SM VCSH SCT060 BKN100
     FM062000 22008KT P6SM VCSH SCT060 BKN080
     FM070200 33007KT P6SM VCSH SCT060 BKN080
      AMD LTD TO CLD VIS AND WIND=



000
FTUS45 KSLC 060540 AAA
TAFSGU
TAF AMD
KSGU 060540Z 0606/0706 29009G17KT P6SM -SHRA BKN060 BKN080
     FM060900 VRB05KT P6SM SCT060 BKN080
     FM061900 23012G19KT P6SM SCT080 BKN120
     FM070100 22012G22KT P6SM SCT080 BKN120
      AMD LTD TO CLD VIS AND WIND=



000
FTUS45 KSLC 060540 AAA
TAFSGU
TAF AMD
KSGU 060540Z 0606/0706 29009G17KT P6SM -SHRA BKN060 BKN080
     FM060900 VRB05KT P6SM SCT060 BKN080
     FM061900 23012G19KT P6SM SCT080 BKN120
     FM070100 22012G22KT P6SM SCT080 BKN120
      AMD LTD TO CLD VIS AND WIND=



000
FTUS45 KSLC 060540 AAA
TAFSGU
TAF AMD
KSGU 060540Z 0606/0706 29009G17KT P6SM -SHRA BKN060 BKN080
     FM060900 VRB05KT P6SM SCT060 BKN080
     FM061900 23012G19KT P6SM SCT080 BKN120
     FM070100 22012G22KT P6SM SCT080 BKN120
      AMD LTD TO CLD VIS AND WIND=



000
FTUS45 KSLC 060523 CCA
TAFPVU
TAF COR
KPVU 060523Z 0606/0706 VRB15G25KT P6SM -SHRA VCTS BKN060CB BKN100
     FM060900 33010KT P6SM VCSH SCT060 BKN100
     FM062000 22008KT P6SM VCSH SCT060 BKN080
     FM070200 33007KT P6SM VCSH SCT060 BKN080
      AMD LTD TO CLD VIS AND WIND=



000
FTUS45 KSLC 060523 CCA
TAFPVU
TAF COR
KPVU 060523Z 0606/0706 VRB15G25KT P6SM -SHRA VCTS BKN060CB BKN100
     FM060900 33010KT P6SM VCSH SCT060 BKN100
     FM062000 22008KT P6SM VCSH SCT060 BKN080
     FM070200 33007KT P6SM VCSH SCT060 BKN080
      AMD LTD TO CLD VIS AND WIND=



000
FTUS45 KSLC 060520
TAFLGU
TAF
KLGU 060520Z 0606/0706 VRB04KT P6SM SCT080 BKN120
     FM062100 VRB05KT P6SM VCSH SCT060 BKN100=



000
FTUS45 KSLC 060520
TAFPVU
TAF
KPVU 060520Z 0606/0706 VRB05KT P6SM SCT080 BKN110
     FM062000 22008KT P6SM VCSH SCT060 BKN080
     FM070200 33007KT P6SM VCSH SCT060 BKN080
      AMD LTD TO CLD VIS AND WIND=



000
FTUS45 KSLC 060520
TAFBCE
TAF
KBCE 060520Z 0606/0706 32007KT P6SM VCSH SCT040 BKN060
     FM061200 25009KT P6SM SCT060 BKN100
     FM061600 16010KT P6SM SCT060 BKN120
     FM061900 20013G20KT P6SM SCT060 BKN120
     FM070300 21010KT P6SM SCT060 BKN120=



000
FTUS45 KSLC 060520
TAFPVU
TAF
KPVU 060520Z 0606/0706 VRB05KT P6SM SCT080 BKN110
     FM062000 22008KT P6SM VCSH SCT060 BKN080
     FM070200 33007KT P6SM VCSH SCT060 BKN080
      AMD LTD TO CLD VIS AND WIND=



000
FTUS45 KSLC 060520
TAFCDC
TAF
KCDC 060520Z 0606/0706 15010KT P6SM VCSH SCT060 BKN080
     FM061600 22018G27KT P6SM VCSH SCT070 BKN080
     FM062200 22018G27KT P6SM SCT080 BKN100=



000
FTUS45 KSLC 060520
TAFSLC
TAF
KSLC 060520Z 0606/0712 15007KT P6SM SCT070 BKN110
     FM061900 32009KT P6SM VCSH SCT060 BKN080
     FM070300 15007KT P6SM VCSH SCT060 BKN080=



000
FTUS45 KSLC 060520
TAFENV
TAF
KENV 060520Z 0606/0706 15009KT P6SM VCSH SCT090 BKN100
     FM061700 10008KT P6SM VCSH SCT050 BKN080
      AMD LTD TO CLD VIS AND WIND=



000
FTUS45 KSLC 060520
TAFOGD
TAF
KOGD 060520Z 0606/0706 17006KT P6SM SCT080 BKN120
     FM061900 27006KT P6SM VCSH SCT060 BKN080=



000
FTUS45 KSLC 060520
TAFENV
TAF
KENV 060520Z 0606/0706 15009KT P6SM VCSH SCT090 BKN100
     FM061700 10008KT P6SM VCSH SCT050 BKN080
      AMD LTD TO CLD VIS AND WIND=



000
FTUS45 KSLC 060520
TAFLGU
TAF
KLGU 060520Z 0606/0706 VRB04KT P6SM SCT080 BKN120
     FM062100 VRB05KT P6SM VCSH SCT060 BKN100=



000
FTUS45 KSLC 060520
TAFOGD
TAF
KOGD 060520Z 0606/0706 17006KT P6SM SCT080 BKN120
     FM061900 27006KT P6SM VCSH SCT060 BKN080=



000
FTUS45 KSLC 060520
TAFCDC
TAF
KCDC 060520Z 0606/0706 15010KT P6SM VCSH SCT060 BKN080
     FM061600 22018G27KT P6SM VCSH SCT070 BKN080
     FM062200 22018G27KT P6SM SCT080 BKN100=



000
FTUS45 KSLC 060520
TAFSLC
TAF
KSLC 060520Z 0606/0712 15007KT P6SM SCT070 BKN110
     FM061900 32009KT P6SM VCSH SCT060 BKN080
     FM070300 15007KT P6SM VCSH SCT060 BKN080=



000
FTUS45 KSLC 060520
TAFSGU
TAF
KSGU 060520Z 0606/0706 VRB05KT P6SM SCT060 BKN080
     FM061900 23012G19KT P6SM SCT080 BKN120
     FM070100 22012G22KT P6SM SCT080 BKN120
      AMD LTD TO CLD VIS AND WIND=



000
FTUS45 KSLC 060429 AAC
TAFSLC
TAF AMD
KSLC 060429Z 0604/0706 15007KT P6SM VCSH BKN060 BKN090
     FM060500 15007KT P6SM SCT070 BKN110
     FM061800 32009KT P6SM VCSH SCT060 BKN090=



000
FTUS45 KSLC 060403 AAB
TAFPVU
TAF AMD
KPVU 060403Z 0604/0624 VRB15G25KT P6SM VCTS SCT060CB BKN080
     FM060600 VRB05KT P6SM SCT080 BKN110
     FM062000 22008KT P6SM VCSH SCT060 BKN090
      AMD NOT SKED=



000
FTUS45 KSLC 060403 AAB
TAFPVU
TAF AMD
KPVU 060403Z 0604/0624 VRB15G25KT P6SM VCTS SCT060CB BKN080
     FM060600 VRB05KT P6SM SCT080 BKN110
     FM062000 22008KT P6SM VCSH SCT060 BKN090
      AMD NOT SKED=



000
FTUS45 KSLC 060259 AAB
TAFSLC
TAF AMD
KSLC 060259Z 0603/0706 32012G19KT P6SM -SHRA VCTS SCT050CB BKN070
     FM060400 02009KT P6SM VCSH SCT060 BKN090
     FM060500 15007KT P6SM SCT070 BKN110
     FM061800 32009KT P6SM VCSH SCT060 BKN090=



000
FTUS45 KSLC 060259 AAB
TAFSLC
TAF AMD
KSLC 060259Z 0603/0706 32012G19KT P6SM -SHRA VCTS SCT050CB BKN070
     FM060400 02009KT P6SM VCSH SCT060 BKN090
     FM060500 15007KT P6SM SCT070 BKN110
     FM061800 32009KT P6SM VCSH SCT060 BKN090=



000
FTUS45 KSLC 060252 AAA
TAFPVU
TAF AMD
KPVU 060252Z 0603/0624 24010KT P6SM VCSH SCT060 BKN080
     FM060600 VRB05KT P6SM SCT080 BKN110
     FM062000 22008KT P6SM VCSH SCT060 BKN090
      AMD NOT SKED=



000
FTUS45 KSLC 060252 AAA
TAFPVU
TAF AMD
KPVU 060252Z 0603/0624 24010KT P6SM VCSH SCT060 BKN080
     FM060600 VRB05KT P6SM SCT080 BKN110
     FM062000 22008KT P6SM VCSH SCT060 BKN090
      AMD NOT SKED=



000
FTUS45 KSLC 060245 AAD
TAFOGD
TAF AMD
KOGD 060245Z 0603/0624 30009KT P6SM VCSH SCT050 BKN080
     FM060500 17006KT P6SM SCT080 BKN120
     FM061900 27006KT P6SM VCSH SCT060 BKN090=



000
FTUS45 KSLC 060245 AAD
TAFOGD
TAF AMD
KOGD 060245Z 0603/0624 30009KT P6SM VCSH SCT050 BKN080
     FM060500 17006KT P6SM SCT080 BKN120
     FM061900 27006KT P6SM VCSH SCT060 BKN090=



000
FTUS45 KSLC 060245 AAD
TAFOGD
TAF AMD
KOGD 060245Z 0603/0624 30009KT P6SM VCSH SCT050 BKN080
     FM060500 17006KT P6SM SCT080 BKN120
     FM061900 27006KT P6SM VCSH SCT060 BKN090=



000
FTUS45 KSLC 060243 AAB
TAFENV
TAF AMD
KENV 060243Z 0603/0624 06010KT P6SM VCSH SCT050 BKN090
     FM060400 35009KT P6SM SCT070 BKN110
     FM060600 VRB04KT P6SM SCT090 BKN150
     FM061700 10008KT P6SM VCSH SCT050 BKN080
      AMD LTD TO CLD VIS AND WIND=



000
FTUS45 KSLC 060243 AAB
TAFENV
TAF AMD
KENV 060243Z 0603/0624 06010KT P6SM VCSH SCT050 BKN090
     FM060400 35009KT P6SM SCT070 BKN110
     FM060600 VRB04KT P6SM SCT090 BKN150
     FM061700 10008KT P6SM VCSH SCT050 BKN080
      AMD LTD TO CLD VIS AND WIND=



000
FTUS45 KSLC 060243 AAB
TAFENV
TAF AMD
KENV 060243Z 0603/0624 06010KT P6SM VCSH SCT050 BKN090
     FM060400 35009KT P6SM SCT070 BKN110
     FM060600 VRB04KT P6SM SCT090 BKN150
     FM061700 10008KT P6SM VCSH SCT050 BKN080
      AMD LTD TO CLD VIS AND WIND=



000
FTUS45 KSLC 060243 AAB
TAFENV
TAF AMD
KENV 060243Z 0603/0624 06010KT P6SM VCSH SCT050 BKN090
     FM060400 35009KT P6SM SCT070 BKN110
     FM060600 VRB04KT P6SM SCT090 BKN150
     FM061700 10008KT P6SM VCSH SCT050 BKN080
      AMD LTD TO CLD VIS AND WIND=



000
FTUS45 KSLC 060225 AAE
TAFSLC
TAF AMD
KSLC 060225Z 0602/0706 32017G26KT P6SM -SHRA VCTS SCT040CB BKN060
      TEMPO 0602/0603 6SM -TSRA BKN040CB
     FM060400 16007KT P6SM SCT070 BKN110
     FM061800 32009KT P6SM VCSH SCT060 BKN090=



000
FTUS45 KSLC 060216 AAD
TAFSLC
TAF AMD
KSLC 060216Z 0602/0706 32017G26KT P6SM -SHRA VCTS SCT040CB BKN060
     FM060400 16007KT P6SM SCT070 BKN110
     FM061800 32009KT P6SM VCSH SCT060 BKN090=



000
FTUS45 KSLC 060216 AAD
TAFSLC
TAF AMD
KSLC 060216Z 0602/0706 32017G26KT P6SM -SHRA VCTS SCT040CB BKN060
     FM060400 16007KT P6SM SCT070 BKN110
     FM061800 32009KT P6SM VCSH SCT060 BKN090=



000
FTUS45 KSLC 060147 AAC
TAFOGD
TAF AMD
KOGD 060147Z 0602/0624 34005KT P6SM VCSH SCT050 BKN080
     FM060155 27019G29KT P6SM VCSH SCT040 BKN060
     FM060300 29010KT 6SM -SHRA VCTS SCT030CB BKN050
     FM060500 17006KT P6SM SCT080 BKN120
     FM061900 27006KT P6SM VCSH SCT060 BKN090=



000
FTUS45 KSLC 060147 AAC
TAFOGD
TAF AMD
KOGD 060147Z 0602/0624 34005KT P6SM VCSH SCT050 BKN080
     FM060155 27019G29KT P6SM VCSH SCT040 BKN060
     FM060300 29010KT 6SM -SHRA VCTS SCT030CB BKN050
     FM060500 17006KT P6SM SCT080 BKN120
     FM061900 27006KT P6SM VCSH SCT060 BKN090=



000
FTUS45 KSLC 060143 AAC
TAFSLC
TAF AMD
KSLC 060143Z 0602/0706 33005KT P6SM VCSH SCT080 BKN110
     FM060150 32020G30KT P6SM VCSH SCT050 BKN080
     FM060300 33010KT 6SM -SHRA VCTS SCT030CB BKN050
     FM060400 16007KT P6SM SCT070 BKN110
     FM061800 32009KT P6SM VCSH SCT060 BKN090=



000
FTUS45 KSLC 060123 AAB
TAFSGU
TAF AMD
KSGU 060123Z 0601/0624 29010KT P6SM SCT070 BKN100
     FM060145 36010KT P6SM -SHRA VCTS SCT040CB BKN070
      TEMPO 0602/0604 VRB15G25KT 6SM -TSRA BKN040CB
     FM060600 VRB05KT P6SM SCT060 BKN080
     FM061900 23012G19KT P6SM SCT080 BKN150
      AMD LTD TO CLD VIS AND WIND=



000
FTUS45 KSLC 060123 AAB
TAFSGU
TAF AMD
KSGU 060123Z 0601/0624 29010KT P6SM SCT070 BKN100
     FM060145 36010KT P6SM -SHRA VCTS SCT040CB BKN070
      TEMPO 0602/0604 VRB15G25KT 6SM -TSRA BKN040CB
     FM060600 VRB05KT P6SM SCT060 BKN080
     FM061900 23012G19KT P6SM SCT080 BKN150
      AMD LTD TO CLD VIS AND WIND=



000
FTUS45 KSLC 060123 AAB
TAFSGU
TAF AMD
KSGU 060123Z 0601/0624 29010KT P6SM SCT070 BKN100
     FM060145 36010KT P6SM -SHRA VCTS SCT040CB BKN070
      TEMPO 0602/0604 VRB15G25KT 6SM -TSRA BKN040CB
     FM060600 VRB05KT P6SM SCT060 BKN080
     FM061900 23012G19KT P6SM SCT080 BKN150
      AMD LTD TO CLD VIS AND WIND=



000
FTUS45 KSLC 060123 AAB
TAFSGU
TAF AMD
KSGU 060123Z 0601/0624 29010KT P6SM SCT070 BKN100
     FM060145 36010KT P6SM -SHRA VCTS SCT040CB BKN070
      TEMPO 0602/0604 VRB15G25KT 6SM -TSRA BKN040CB
     FM060600 VRB05KT P6SM SCT060 BKN080
     FM061900 23012G19KT P6SM SCT080 BKN150
      AMD LTD TO CLD VIS AND WIND=



000
FTUS45 KSLC 060104 AAB
TAFCDC
TAF AMD
KCDC 060104Z 0601/0624 22010KT P6SM -SHRA VCTS SCT040CB BKN060
      TEMPO 0601/0602 VRB15G25KT 3SM TSRA BKN040CB
     FM060300 19007KT P6SM SCT060 BKN080
     FM061600 22018G27KT P6SM SCT070 BKN120=



000
FTUS45 KSLC 060104 AAB
TAFCDC
TAF AMD
KCDC 060104Z 0601/0624 22010KT P6SM -SHRA VCTS SCT040CB BKN060
      TEMPO 0601/0602 VRB15G25KT 3SM TSRA BKN040CB
     FM060300 19007KT P6SM SCT060 BKN080
     FM061600 22018G27KT P6SM SCT070 BKN120=



000
FTUS45 KSLC 060103 AAC
TAFSLC
TAF AMD
KSLC 060103Z 0601/0706 33005KT P6SM VCSH SCT080 BKN110
     FM060145 29018G28KT P6SM VCSH SCT050 BKN080
     FM060300 33010KT 6SM -SHRA VCTS SCT030CB BKN050
     FM060400 16007KT P6SM SCT070 BKN110
     FM061800 32009KT P6SM VCSH SCT060 BKN090=



000
FTUS45 KSLC 060103 AAC
TAFSLC
TAF AMD
KSLC 060103Z 0601/0706 33005KT P6SM VCSH SCT080 BKN110
     FM060145 29018G28KT P6SM VCSH SCT050 BKN080
     FM060300 33010KT 6SM -SHRA VCTS SCT030CB BKN050
     FM060400 16007KT P6SM SCT070 BKN110
     FM061800 32009KT P6SM VCSH SCT060 BKN090=



000
FTUS45 KSLC 060101 AAB
TAFOGD
TAF AMD
KOGD 060101Z 0601/0624 34005KT P6SM VCSH SCT050 BKN080
     FM060140 27018G28KT P6SM VCSH SCT040 BKN060
     FM060300 29010KT 6SM -SHRA VCTS SCT030CB BKN050
     FM060500 17006KT P6SM SCT080 BKN120
     FM061900 27006KT P6SM VCSH SCT060 BKN090=



000
FTUS45 KSLC 060101 AAB
TAFOGD
TAF AMD
KOGD 060101Z 0601/0624 34005KT P6SM VCSH SCT050 BKN080
     FM060140 27018G28KT P6SM VCSH SCT040 BKN060
     FM060300 29010KT 6SM -SHRA VCTS SCT030CB BKN050
     FM060500 17006KT P6SM SCT080 BKN120
     FM061900 27006KT P6SM VCSH SCT060 BKN090=



000
FTUS45 KSLC 060053 AAA
TAFENV
TAF AMD
KENV 060053Z 0601/0624 03010G15KT P6SM VCSH SCT050 BKN090
     FM060200 35009KT P6SM SCT070 BKN110
     FM060600 VRB04KT P6SM SCT090 BKN150
     FM061700 10008KT P6SM VCSH SCT050 BKN080
      AMD LTD TO CLD VIS AND WIND=



000
FTUS45 KSLC 060053 AAA
TAFENV
TAF AMD
KENV 060053Z 0601/0624 03010G15KT P6SM VCSH SCT050 BKN090
     FM060200 35009KT P6SM SCT070 BKN110
     FM060600 VRB04KT P6SM SCT090 BKN150
     FM061700 10008KT P6SM VCSH SCT050 BKN080
      AMD LTD TO CLD VIS AND WIND=



000
FTUS45 KSLC 060052 AAA
TAFSGU
TAF AMD
KSGU 060052Z 0601/0624 29010G15KT P6SM SCT070 BKN100
     FM060130 27009KT P6SM -SHRA VCTS SCT040CB BKN070
     FM060600 VRB05KT P6SM SCT060 BKN080
     FM061900 23012G19KT P6SM SCT080 BKN150
      AMD LTD TO CLD VIS AND WIND=



000
FTUS45 KSLC 060023 AAA
TAFOGD
TAF AMD
KOGD 060023Z 0600/0624 36007KT P6SM VCSH SCT050 BKN080
     FM060200 27015G25KT 6SM -SHRA VCTS SCT030CB BKN050
     FM060400 17006KT P6SM SCT080 BKN120
     FM061900 27006KT P6SM VCSH SCT060 BKN090=



000
FTUS45 KSLC 060023 AAA
TAFOGD
TAF AMD
KOGD 060023Z 0600/0624 36007KT P6SM VCSH SCT050 BKN080
     FM060200 27015G25KT 6SM -SHRA VCTS SCT030CB BKN050
     FM060400 17006KT P6SM SCT080 BKN120
     FM061900 27006KT P6SM VCSH SCT060 BKN090=



000
FTUS45 KSLC 060022 AAB
TAFSLC
TAF AMD
KSLC 060022Z 0600/0706 33005KT P6SM VCSH SCT050 BKN080
     FM060200 29018G28KT 6SM -SHRA VCTS SCT030CB BKN050
     FM060400 16007KT P6SM SCT070 BKN110
     FM061800 32009KT P6SM VCSH SCT060 BKN090=



000
FTUS45 KSLC 060022 AAB
TAFSLC
TAF AMD
KSLC 060022Z 0600/0706 33005KT P6SM VCSH SCT050 BKN080
     FM060200 29018G28KT 6SM -SHRA VCTS SCT030CB BKN050
     FM060400 16007KT P6SM SCT070 BKN110
     FM061800 32009KT P6SM VCSH SCT060 BKN090=



000
FTUS45 KSLC 060008 AAA
TAFCDC
TAF AMD
KCDC 060008Z 0600/0624 22010KT P6SM -SHRA VCTS SCT040CB BKN060
      TEMPO 0600/0601 VRB15G25KT 3SM TSRA BKN040CB
     FM060300 19007KT P6SM SCT060 BKN080
     FM061600 22018G27KT P6SM SCT070 BKN120=



000
FTUS45 KSLC 060008 AAA
TAFCDC
TAF AMD
KCDC 060008Z 0600/0624 22010KT P6SM -SHRA VCTS SCT040CB BKN060
      TEMPO 0600/0601 VRB15G25KT 3SM TSRA BKN040CB
     FM060300 19007KT P6SM SCT060 BKN080
     FM061600 22018G27KT P6SM SCT070 BKN120=



000
FTUS45 KSLC 052335
TAFENV
TAF
KENV 052335Z 0600/0624 33010G15KT P6SM VCSH SCT050 BKN090
     FM060100 33009KT P6SM SCT070 BKN110
     FM060600 VRB04KT P6SM SCT090 BKN150
     FM061700 10008KT P6SM VCSH SCT050 BKN080
      AMD LTD TO CLD VIS AND WIND=



000
FTUS45 KSLC 052335
TAFOGD
TAF
KOGD 052335Z 0600/0624 33010KT P6SM VCSH SCT050 BKN080
     FM060300 17006KT P6SM SCT080 BKN120
     FM061900 27006KT P6SM VCSH SCT060 BKN090=



000
FTUS45 KSLC 052335
TAFLGU
TAF
KLGU 052335Z 0600/0624 36007KT P6SM VCSH SCT050 BKN080
     FM060400 VRB04KT P6SM SCT080 BKN120
     FM062100 VRB05KT P6SM VCSH SCT060 BKN100=



000
FTUS45 KSLC 052335
TAFENV
TAF
KENV 052335Z 0600/0624 33010G15KT P6SM VCSH SCT050 BKN090
     FM060100 33009KT P6SM SCT070 BKN110
     FM060600 VRB04KT P6SM SCT090 BKN150
     FM061700 10008KT P6SM VCSH SCT050 BKN080
      AMD LTD TO CLD VIS AND WIND=



000
FTUS45 KSLC 052335
TAFCDC
TAF
KCDC 052335Z 0600/0624 22010KT P6SM -SHRA VCTS SCT040CB BKN060
      TEMPO 0600/0601 VRB15G25KT -TSRA BKN040CB
     FM060300 19007KT P6SM SCT060 BKN080
     FM061600 22018G27KT P6SM SCT070 BKN120=



000
FTUS45 KSLC 052335
TAFBCE
TAF
KBCE 052335Z 0600/0624 VRB05KT P6SM -SHRA VCTS SCT030CB BKN050
      TEMPO 0600/0602 VRB15G25KT -TSRA BKN030CB
     FM060300 27007KT P6SM VCSH SCT040 BKN060
     FM061200 25009KT P6SM SCT060 BKN100
     FM061600 16010KT P6SM SCT060 BKN120
     FM061900 20013G20KT P6SM SCT060 BKN120=



000
FTUS45 KSLC 052335
TAFSGU
TAF
KSGU 052335Z 0600/0624 29010G15KT P6SM SCT070 BKN100
     FM060200 27009KT P6SM VCSH SCT040 BKN070
     FM060600 VRB05KT P6SM SCT060 BKN080
     FM061900 23012G19KT P6SM SCT080 BKN150
      AMD LTD TO CLD VIS AND WIND=



000
FTUS45 KSLC 052335
TAFCDC
TAF
KCDC 052335Z 0600/0624 22010KT P6SM -SHRA VCTS SCT040CB BKN060
      TEMPO 0600/0601 VRB15G25KT -TSRA BKN040CB
     FM060300 19007KT P6SM SCT060 BKN080
     FM061600 22018G27KT P6SM SCT070 BKN120=



000
FTUS45 KSLC 052335
TAFPVU
TAF
KPVU 052335Z 0600/0624 24010KT P6SM VCSH SCT060 BKN080
     FM060300 VRB05KT P6SM SCT080 BKN110
     FM062000 22008KT P6SM VCSH SCT060 BKN090
      AMD LTD TO CLD VIS AND WIND=



000
FTUS45 KSLC 052335
TAFBCE
TAF
KBCE 052335Z 0600/0624 VRB05KT P6SM -SHRA VCTS SCT030CB BKN050
      TEMPO 0600/0602 VRB15G25KT -TSRA BKN030CB
     FM060300 27007KT P6SM VCSH SCT040 BKN060
     FM061200 25009KT P6SM SCT060 BKN100
     FM061600 16010KT P6SM SCT060 BKN120
     FM061900 20013G20KT P6SM SCT060 BKN120=



000
FTUS45 KSLC 052335
TAFOGD
TAF
KOGD 052335Z 0600/0624 33010KT P6SM VCSH SCT050 BKN080
     FM060300 17006KT P6SM SCT080 BKN120
     FM061900 27006KT P6SM VCSH SCT060 BKN090=



000
FTUS45 KSLC 052335
TAFLGU
TAF
KLGU 052335Z 0600/0624 36007KT P6SM VCSH SCT050 BKN080
     FM060400 VRB04KT P6SM SCT080 BKN120
     FM062100 VRB05KT P6SM VCSH SCT060 BKN100=



000
FTUS45 KSLC 052335
TAFSLC
TAF
KSLC 052335Z 0600/0706 33005KT P6SM VCSH SCT050 BKN080
     FM060300 16007KT P6SM SCT070 BKN110
     FM061800 32009KT P6SM VCSH SCT060 BKN090=



000
FTUS45 KSLC 052335
TAFSGU
TAF
KSGU 052335Z 0600/0624 29010G15KT P6SM SCT070 BKN100
     FM060200 27009KT P6SM VCSH SCT040 BKN070
     FM060600 VRB05KT P6SM SCT060 BKN080
     FM061900 23012G19KT P6SM SCT080 BKN150
      AMD LTD TO CLD VIS AND WIND=



000
FTUS45 KSLC 052306 AAB
TAFCDC
TAF AMD
KCDC 052306Z 0523/0618 23010G15KT P6SM -SHRA VCTS SCT030CB BKN060
      TEMPO 0523/0601 VRB20G35KT 2SM TSRA BKN030CB
     FM060300 19007KT P6SM SCT060 BKN080=



000
FTUS45 KSLC 052306 AAB
TAFCDC
TAF AMD
KCDC 052306Z 0523/0618 23010G15KT P6SM -SHRA VCTS SCT030CB BKN060
      TEMPO 0523/0601 VRB20G35KT 2SM TSRA BKN030CB
     FM060300 19007KT P6SM SCT060 BKN080=



000
FTUS45 KSLC 052306 AAB
TAFCDC
TAF AMD
KCDC 052306Z 0523/0618 23010G15KT P6SM -SHRA VCTS SCT030CB BKN060
      TEMPO 0523/0601 VRB20G35KT 2SM TSRA BKN030CB
     FM060300 19007KT P6SM SCT060 BKN080=



000
FTUS45 KSLC 052306 AAB
TAFCDC
TAF AMD
KCDC 052306Z 0523/0618 23010G15KT P6SM -SHRA VCTS SCT030CB BKN060
      TEMPO 0523/0601 VRB20G35KT 2SM TSRA BKN030CB
     FM060300 19007KT P6SM SCT060 BKN080=



000
FTUS45 KSLC 052204 AAB
TAFENV
TAF AMD
KENV 052204Z 0522/0618 12007KT P6SM VCSH SCT070 BKN100
      TEMPO 0522/0523 VRB15G25KT -TSRA BKN070CB
     FM060200 33008KT P6SM SCT070 BKN120
     FM060700 VRB04KT P6SM SCT090 BKN150
      AMD LTD TO CLD VIS AND WIND=



000
FTUS45 KSLC 052204 AAB
TAFENV
TAF AMD
KENV 052204Z 0522/0618 12007KT P6SM VCSH SCT070 BKN100
      TEMPO 0522/0523 VRB15G25KT -TSRA BKN070CB
     FM060200 33008KT P6SM SCT070 BKN120
     FM060700 VRB04KT P6SM SCT090 BKN150
      AMD LTD TO CLD VIS AND WIND=



000
FTUS45 KSLC 052202 AAA
TAFOGD
TAF AMD
KOGD 052202Z 0522/0618 27006KT P6SM VCSH SCT080 BKN120
     FM052230 35011KT P6SM -SHRA SCT050 BKN080
     FM060300 17006KT P6SM SCT080 BKN120=



000
FTUS45 KSLC 052202 AAA
TAFOGD
TAF AMD
KOGD 052202Z 0522/0618 27006KT P6SM VCSH SCT080 BKN120
     FM052230 35011KT P6SM -SHRA SCT050 BKN080
     FM060300 17006KT P6SM SCT080 BKN120=



000
FTUS45 KSLC 052158 AAC
TAFLGU
TAF AMD
KLGU 052158Z 0522/0618 32011KT P6SM -SHRA VCTS SCT050CB BKN080
      TEMPO 0522/0524 4SM -TSRA BKN050CB
     FM060400 VRB04KT P6SM SCT080 BKN120=



000
FTUS45 KSLC 052158 AAC
TAFLGU
TAF AMD
KLGU 052158Z 0522/0618 32011KT P6SM -SHRA VCTS SCT050CB BKN080
      TEMPO 0522/0524 4SM -TSRA BKN050CB
     FM060400 VRB04KT P6SM SCT080 BKN120=



000
FTUS45 KSLC 052158 AAC
TAFLGU
TAF AMD
KLGU 052158Z 0522/0618 32011KT P6SM -SHRA VCTS SCT050CB BKN080
      TEMPO 0522/0524 4SM -TSRA BKN050CB
     FM060400 VRB04KT P6SM SCT080 BKN120=



000
FTUS45 KSLC 052158 AAC
TAFLGU
TAF AMD
KLGU 052158Z 0522/0618 32011KT P6SM -SHRA VCTS SCT050CB BKN080
      TEMPO 0522/0524 4SM -TSRA BKN050CB
     FM060400 VRB04KT P6SM SCT080 BKN120=



000
FTUS45 KSLC 052151 AAA
TAFCDC
TAF AMD
KCDC 052151Z 0522/0618 23010G15KT P6SM -SHRA VCTS SCT040CB BKN060
      TEMPO 0523/0601 VRB15G25KT -TSRA BKN040CB
     FM060300 19007KT P6SM SCT060 BKN080=



000
FTUS45 KSLC 052151 AAA
TAFCDC
TAF AMD
KCDC 052151Z 0522/0618 23010G15KT P6SM -SHRA VCTS SCT040CB BKN060
      TEMPO 0523/0601 VRB15G25KT -TSRA BKN040CB
     FM060300 19007KT P6SM SCT060 BKN080=



000
FTUS45 KSLC 052118 AAB
TAFSLC
TAF AMD
KSLC 052118Z 0521/0624 21008KT P6SM VCSH SCT050 BKN080
     FM060200 16007KT P6SM SCT070 BKN110
     FM061800 32009KT P6SM VCSH SCT060 BKN090=



000
FTUS45 KSLC 052118 AAB
TAFSLC
TAF AMD
KSLC 052118Z 0521/0624 21008KT P6SM VCSH SCT050 BKN080
     FM060200 16007KT P6SM SCT070 BKN110
     FM061800 32009KT P6SM VCSH SCT060 BKN090=



000
FTUS45 KSLC 052107 AAA
TAFENV
TAF AMD
KENV 052107Z 0521/0618 12007KT P6SM VCSH SCT070 BKN100
      TEMPO 0521/0522 VRB15G25KT -TSRA BKN070CB
     FM060200 33008KT P6SM SCT070 BKN120
     FM060700 VRB04KT P6SM SCT090 BKN150
      AMD LTD TO CLD VIS AND WIND=



000
FTUS45 KSLC 052107 AAA
TAFENV
TAF AMD
KENV 052107Z 0521/0618 12007KT P6SM VCSH SCT070 BKN100
      TEMPO 0521/0522 VRB15G25KT -TSRA BKN070CB
     FM060200 33008KT P6SM SCT070 BKN120
     FM060700 VRB04KT P6SM SCT090 BKN150
      AMD LTD TO CLD VIS AND WIND=



000
FTUS45 KSLC 052100 AAB
TAFLGU
TAF AMD
KLGU 052100Z 0521/0618 VRB05KT P6SM VCSH SCT050 BKN080
      TEMPO 0521/0522 VRB15G25KT -TSRA BKN050CB
     FM060400 VRB04KT P6SM SCT080 BKN120=



000
FTUS45 KSLC 052100 AAB
TAFLGU
TAF AMD
KLGU 052100Z 0521/0618 VRB05KT P6SM VCSH SCT050 BKN080
      TEMPO 0521/0522 VRB15G25KT -TSRA BKN050CB
     FM060400 VRB04KT P6SM SCT080 BKN120=



000
FTUS45 KSLC 052100 AAB
TAFLGU
TAF AMD
KLGU 052100Z 0521/0618 VRB05KT P6SM VCSH SCT050 BKN080
      TEMPO 0521/0522 VRB15G25KT -TSRA BKN050CB
     FM060400 VRB04KT P6SM SCT080 BKN120=



000
FTUS45 KSLC 052100 AAB
TAFLGU
TAF AMD
KLGU 052100Z 0521/0618 VRB05KT P6SM VCSH SCT050 BKN080
      TEMPO 0521/0522 VRB15G25KT -TSRA BKN050CB
     FM060400 VRB04KT P6SM SCT080 BKN120=



000
FTUS45 KSLC 052049 AAC
TAFSLC
TAF AMD
KSLC 052049Z 0521/0624 25007KT P6SM VCSH SCT050 BKN080
     FM060200 16007KT P6SM SCT070 BKN110
     FM061800 32009KT P6SM VCSH SCT060 BKN090=



000
FTUS45 KSLC 052049 AAC
TAFSLC
TAF AMD
KSLC 052049Z 0521/0624 25007KT P6SM VCSH SCT050 BKN080
     FM060200 16007KT P6SM SCT070 BKN110
     FM061800 32009KT P6SM VCSH SCT060 BKN090=



000
FTUS45 KSLC 052006 AAB
TAFPVU
TAF AMD
KPVU 052006Z 0520/0618 20010KT P6SM -SHRA VCTS SCT060CB BKN080
      TEMPO 0520/0521 08010G17KT -TSRA BKN060CB
     FM060300 VRB05KT P6SM SCT080 BKN110
      AMD LTD TO CLD VIS AND WIND=



000
FTUS45 KSLC 052006 AAB
TAFPVU
TAF AMD
KPVU 052006Z 0520/0618 20010KT P6SM -SHRA VCTS SCT060CB BKN080
      TEMPO 0520/0521 08010G17KT -TSRA BKN060CB
     FM060300 VRB05KT P6SM SCT080 BKN110
      AMD LTD TO CLD VIS AND WIND=



000
FTUS45 KSLC 051922 AAB
TAFSLC
TAF AMD
KSLC 051922Z 0519/0624 27010KT P6SM VCSH SCT060 BKN090
     FM052100 32009KT P6SM VCSH SCT050 BKN070
     FM060300 16007KT P6SM SCT070 BKN110
     FM061800 32009KT P6SM VCSH SCT060 BKN090=



000
FTUS45 KSLC 051922 AAB
TAFSLC
TAF AMD
KSLC 051922Z 0519/0624 27010KT P6SM VCSH SCT060 BKN090
     FM052100 32009KT P6SM VCSH SCT050 BKN070
     FM060300 16007KT P6SM SCT070 BKN110
     FM061800 32009KT P6SM VCSH SCT060 BKN090=



000
FTUS45 KSLC 051914 AAA
TAFLGU
TAF AMD
KLGU 051914Z 0519/0618 VRB05KT P6SM VCSH SCT050 BKN080
      TEMPO 0520/0521 VRB15G25KT -TSRA BKN050CB
     FM060400 VRB04KT P6SM SCT080 BKN120=



000
FTUS45 KSLC 051803 AAA
TAFPVU
TAF AMD
KPVU 051803Z 0518/0618 20007KT P6SM VCSH SCT060 BKN080
      TEMPO 0518/0519 VRB15G25KT -TSRA BKN060CB
     FM060300 VRB05KT P6SM SCT080 BKN110
      AMD LTD TO CLD VIS AND WIND=



000
FTUS45 KSLC 051803 AAA
TAFPVU
TAF AMD
KPVU 051803Z 0518/0618 20007KT P6SM VCSH SCT060 BKN080
      TEMPO 0518/0519 VRB15G25KT -TSRA BKN060CB
     FM060300 VRB05KT P6SM SCT080 BKN110
      AMD LTD TO CLD VIS AND WIND=



000
FTUS45 KSLC 051803 AAA
TAFPVU
TAF AMD
KPVU 051803Z 0518/0618 20007KT P6SM VCSH SCT060 BKN080
      TEMPO 0518/0519 VRB15G25KT -TSRA BKN060CB
     FM060300 VRB05KT P6SM SCT080 BKN110
      AMD LTD TO CLD VIS AND WIND=



000
FTUS45 KSLC 051803 AAA
TAFPVU
TAF AMD
KPVU 051803Z 0518/0618 20007KT P6SM VCSH SCT060 BKN080
      TEMPO 0518/0519 VRB15G25KT -TSRA BKN060CB
     FM060300 VRB05KT P6SM SCT080 BKN110
      AMD LTD TO CLD VIS AND WIND=



000
FTUS45 KSLC 051720
TAFCDC
TAF
KCDC 051720Z 0518/0618 23010G15KT P6SM -SHRA VCTS SCT040CB BKN060
     FM060300 19007KT P6SM SCT060 BKN080=



000
FTUS45 KSLC 051720
TAFOGD
TAF
KOGD 051720Z 0518/0618 20006KT P6SM FEW050 BKN090
     FM051900 27006KT P6SM VCSH SCT050 BKN080
     FM060300 17006KT P6SM SCT080 BKN120=



000
FTUS45 KSLC 051720
TAFOGD
TAF
KOGD 051720Z 0518/0618 20006KT P6SM FEW050 BKN090
     FM051900 27006KT P6SM VCSH SCT050 BKN080
     FM060300 17006KT P6SM SCT080 BKN120=



000
FTUS45 KSLC 051720
TAFLGU
TAF
KLGU 051720Z 0518/0618 VRB05KT P6SM FEW060 BKN110
     FM051900 VRB05KT P6SM VCSH SCT060 BKN080
     FM060400 VRB04KT P6SM SCT080 BKN120=



000
FTUS45 KSLC 051720
TAFENV
TAF
KENV 051720Z 0518/0618 12007KT P6SM VCSH SCT070 BKN100
     FM060200 33008KT P6SM SCT070 BKN120
     FM060700 VRB04KT P6SM SCT090 BKN150
      AMD LTD TO CLD VIS AND WIND=



000
FTUS45 KSLC 051720
TAFCDC
TAF
KCDC 051720Z 0518/0618 23010G15KT P6SM -SHRA VCTS SCT040CB BKN060
     FM060300 19007KT P6SM SCT060 BKN080=



000
FTUS45 KSLC 051720
TAFLGU
TAF
KLGU 051720Z 0518/0618 VRB05KT P6SM FEW060 BKN110
     FM051900 VRB05KT P6SM VCSH SCT060 BKN080
     FM060400 VRB04KT P6SM SCT080 BKN120=



000
FTUS45 KSLC 051720
TAFENV
TAF
KENV 051720Z 0518/0618 12007KT P6SM VCSH SCT070 BKN100
     FM060200 33008KT P6SM SCT070 BKN120
     FM060700 VRB04KT P6SM SCT090 BKN150
      AMD LTD TO CLD VIS AND WIND=



000
FTUS45 KSLC 051720
TAFBCE
TAF
KBCE 051720Z 0518/0618 30011G16KT P6SM -SHRA VCTS SCT030CB BKN050
     FM060100 27007KT P6SM VCSH SCT040 BKN060=



000
FTUS45 KSLC 051720
TAFBCE
TAF
KBCE 051720Z 0518/0618 30011G16KT P6SM -SHRA VCTS SCT030CB BKN050
     FM060100 27007KT P6SM VCSH SCT040 BKN060=



000
FTUS45 KSLC 051720
TAFOGD
TAF
KOGD 051720Z 0518/0618 20006KT P6SM FEW050 BKN090
     FM051900 27006KT P6SM VCSH SCT050 BKN080
     FM060300 17006KT P6SM SCT080 BKN120=



000
FTUS45 KSLC 051720
TAFPVU
TAF
KPVU 051720Z 0518/0618 20007KT P6SM VCSH SCT060 BKN080
     FM060300 VRB05KT P6SM SCT080 BKN110
      AMD LTD TO CLD VIS AND WIND=



000
FTUS45 KSLC 051720
TAFPVU
TAF
KPVU 051720Z 0518/0618 20007KT P6SM VCSH SCT060 BKN080
     FM060300 VRB05KT P6SM SCT080 BKN110
      AMD LTD TO CLD VIS AND WIND=



000
FTUS45 KSLC 051720
TAFSGU
TAF
KSGU 051720Z 0518/0618 VRB05KT P6SM VCSH SCT050 BKN090
     FM051900 26010G15KT P6SM VCSH SCT040 BKN070
     FM060200 27009KT P6SM VCSH SCT040 BKN070
     FM060500 VRB05KT P6SM SCT060 BKN080
      AMD LTD TO CLD VIS AND WIND=



000
FTUS45 KSLC 051720
TAFENV
TAF
KENV 051720Z 0518/0618 12007KT P6SM VCSH SCT070 BKN100
     FM060200 33008KT P6SM SCT070 BKN120
     FM060700 VRB04KT P6SM SCT090 BKN150
      AMD LTD TO CLD VIS AND WIND=



000
FTUS45 KSLC 051720
TAFBCE
TAF
KBCE 051720Z 0518/0618 30011G16KT P6SM -SHRA VCTS SCT030CB BKN050
     FM060100 27007KT P6SM VCSH SCT040 BKN060=



000
FTUS45 KSLC 051720
TAFSGU
TAF
KSGU 051720Z 0518/0618 VRB05KT P6SM VCSH SCT050 BKN090
     FM051900 26010G15KT P6SM VCSH SCT040 BKN070
     FM060200 27009KT P6SM VCSH SCT040 BKN070
     FM060500 VRB05KT P6SM SCT060 BKN080
      AMD LTD TO CLD VIS AND WIND=



000
FTUS45 KSLC 051720
TAFSLC
TAF
KSLC 051720Z 0518/0624 32009KT P6SM VCSH SCT050 BKN070
     FM060300 16007KT P6SM SCT070 BKN110
     FM061800 32009KT P6SM VCSH SCT060 BKN090=



000
FTUS45 KSLC 051720
TAFSGU
TAF
KSGU 051720Z 0518/0618 VRB05KT P6SM VCSH SCT050 BKN090
     FM051900 26010G15KT P6SM VCSH SCT040 BKN070
     FM060200 27009KT P6SM VCSH SCT040 BKN070
     FM060500 VRB05KT P6SM SCT060 BKN080
      AMD LTD TO CLD VIS AND WIND=



000
FTUS45 KSLC 051720
TAFSLC
TAF
KSLC 051720Z 0518/0624 32009KT P6SM VCSH SCT050 BKN070
     FM060300 16007KT P6SM SCT070 BKN110
     FM061800 32009KT P6SM VCSH SCT060 BKN090=



000
FTUS45 KSLC 051720
TAFENV
TAF
KENV 051720Z 0518/0618 12007KT P6SM VCSH SCT070 BKN100
     FM060200 33008KT P6SM SCT070 BKN120
     FM060700 VRB04KT P6SM SCT090 BKN150
      AMD LTD TO CLD VIS AND WIND=



000
FTUS45 KSLC 051720
TAFOGD
TAF
KOGD 051720Z 0518/0618 20006KT P6SM FEW050 BKN090
     FM051900 27006KT P6SM VCSH SCT050 BKN080
     FM060300 17006KT P6SM SCT080 BKN120=



000
FTUS45 KSLC 051720
TAFCDC
TAF
KCDC 051720Z 0518/0618 23010G15KT P6SM -SHRA VCTS SCT040CB BKN060
     FM060300 19007KT P6SM SCT060 BKN080=



000
FTUS45 KSLC 051720
TAFPVU
TAF
KPVU 051720Z 0518/0618 20007KT P6SM VCSH SCT060 BKN080
     FM060300 VRB05KT P6SM SCT080 BKN110
      AMD LTD TO CLD VIS AND WIND=



000
FTUS45 KSLC 051720
TAFCDC
TAF
KCDC 051720Z 0518/0618 23010G15KT P6SM -SHRA VCTS SCT040CB BKN060
     FM060300 19007KT P6SM SCT060 BKN080=



000
FTUS45 KSLC 051720
TAFBCE
TAF
KBCE 051720Z 0518/0618 30011G16KT P6SM -SHRA VCTS SCT030CB BKN050
     FM060100 27007KT P6SM VCSH SCT040 BKN060=



000
FTUS45 KSLC 051720
TAFLGU
TAF
KLGU 051720Z 0518/0618 VRB05KT P6SM FEW060 BKN110
     FM051900 VRB05KT P6SM VCSH SCT060 BKN080
     FM060400 VRB04KT P6SM SCT080 BKN120=



000
FTUS45 KSLC 051720
TAFLGU
TAF
KLGU 051720Z 0518/0618 VRB05KT P6SM FEW060 BKN110
     FM051900 VRB05KT P6SM VCSH SCT060 BKN080
     FM060400 VRB04KT P6SM SCT080 BKN120=



000
FTUS45 KSLC 051720
TAFSGU
TAF
KSGU 051720Z 0518/0618 VRB05KT P6SM VCSH SCT050 BKN090
     FM051900 26010G15KT P6SM VCSH SCT040 BKN070
     FM060200 27009KT P6SM VCSH SCT040 BKN070
     FM060500 VRB05KT P6SM SCT060 BKN080
      AMD LTD TO CLD VIS AND WIND=



000
FTUS45 KSLC 051720
TAFSLC
TAF
KSLC 051720Z 0518/0624 32009KT P6SM VCSH SCT050 BKN070
     FM060300 16007KT P6SM SCT070 BKN110
     FM061800 32009KT P6SM VCSH SCT060 BKN090=



000
FTUS45 KSLC 051720
TAFPVU
TAF
KPVU 051720Z 0518/0618 20007KT P6SM VCSH SCT060 BKN080
     FM060300 VRB05KT P6SM SCT080 BKN110
      AMD LTD TO CLD VIS AND WIND=



000
FTUS45 KSLC 051720
TAFSLC
TAF
KSLC 051720Z 0518/0624 32009KT P6SM VCSH SCT050 BKN070
     FM060300 16007KT P6SM SCT070 BKN110
     FM061800 32009KT P6SM VCSH SCT060 BKN090=



000
FTUS45 KSLC 051609 AAA
TAFENV
TAF AMD
KENV 051609Z 0516/0612 06007KT P6SM SCT120
     FM051800 12007KT P6SM SCT090 BKN100
      AMD LTD TO CLD VIS AND WIND=



000
FTUS45 KSLC 051609 AAA
TAFENV
TAF AMD
KENV 051609Z 0516/0612 06007KT P6SM SCT120
     FM051800 12007KT P6SM SCT090 BKN100
      AMD LTD TO CLD VIS AND WIND=



000
FTUS45 KSLC 051537 AAC
TAFSLC
TAF AMD
KSLC 051537Z 0516/0618 33006KT P6SM BKN070
     FM051800 32007KT P6SM VCSH SCT060 BKN080
     FM060300 17006KT P6SM SCT060 BKN080=



000
FTUS45 KSLC 051537 AAC
TAFSLC
TAF AMD
KSLC 051537Z 0516/0618 33006KT P6SM BKN070
     FM051800 32007KT P6SM VCSH SCT060 BKN080
     FM060300 17006KT P6SM SCT060 BKN080=



000
FTUS45 KSLC 051507 AAB
TAFSLC
TAF AMD
KSLC 051507Z 0515/0618 14007KT P6SM SCT070 BKN120
     FM051800 32007KT P6SM VCSH SCT060 BKN080
     FM060300 17006KT P6SM SCT060 BKN080=



000
FTUS45 KSLC 051507 AAB
TAFSLC
TAF AMD
KSLC 051507Z 0515/0618 14007KT P6SM SCT070 BKN120
     FM051800 32007KT P6SM VCSH SCT060 BKN080
     FM060300 17006KT P6SM SCT060 BKN080=



000
FTUS45 KSLC 051342 AAA
TAFSGU
TAF AMD
KSGU 051342Z 0514/0612 VRB05KT P6SM VCSH SCT040 BKN090
     FM052000 22010KT P6SM VCSH SCT060 BKN070
     FM060200 VRB05KT P6SM SCT060 BKN080
      AMD LTD TO CLD VIS AND WIND=



000
FTUS45 KSLC 051342 AAA
TAFSGU
TAF AMD
KSGU 051342Z 0514/0612 VRB05KT P6SM VCSH SCT040 BKN090
     FM052000 22010KT P6SM VCSH SCT060 BKN070
     FM060200 VRB05KT P6SM SCT060 BKN080
      AMD LTD TO CLD VIS AND WIND=



000
FTUS45 KSLC 051336 AAB
TAFCDC
TAF AMD
KCDC 051336Z 0514/0612 20005KT P6SM VCSH BKN040 OVC060
     FM051800 22008KT P6SM VCTS SCT060CB BKN080
     FM060300 19007KT P6SM SCT060 BKN080=



000
FTUS45 KSLC 051336 AAB
TAFCDC
TAF AMD
KCDC 051336Z 0514/0612 20005KT P6SM VCSH BKN040 OVC060
     FM051800 22008KT P6SM VCTS SCT060CB BKN080
     FM060300 19007KT P6SM SCT060 BKN080=



000
FTUS45 KSLC 051336 AAB
TAFCDC
TAF AMD
KCDC 051336Z 0514/0612 20005KT P6SM VCSH BKN040 OVC060
     FM051800 22008KT P6SM VCTS SCT060CB BKN080
     FM060300 19007KT P6SM SCT060 BKN080=



000
FTUS45 KSLC 051336 AAB
TAFCDC
TAF AMD
KCDC 051336Z 0514/0612 20005KT P6SM VCSH BKN040 OVC060
     FM051800 22008KT P6SM VCTS SCT060CB BKN080
     FM060300 19007KT P6SM SCT060 BKN080=



000
FTUS45 KSLC 051122 AAA
TAFCDC
TAF AMD
KCDC 051122Z 0511/0612 17005KT P6SM -RA BKN040 OVC050
      TEMPO 0512/0514 5SM -RA OVC025
     FM051800 22008KT P6SM VCTS SCT060CB BKN080
     FM060300 19007KT P6SM SCT060 BKN080=



000
FTUS45 KSLC 051122 AAA
TAFCDC
TAF AMD
KCDC 051122Z 0511/0612 17005KT P6SM -RA BKN040 OVC050
      TEMPO 0512/0514 5SM -RA OVC025
     FM051800 22008KT P6SM VCTS SCT060CB BKN080
     FM060300 19007KT P6SM SCT060 BKN080=



000
FTUS45 KSLC 051120
TAFSGU
TAF
KSGU 051120Z 0512/0612 VRB05KT P6SM VCSH SCT080 BKN100
     FM052000 22010KT P6SM VCSH SCT060 BKN070
     FM060200 VRB05KT P6SM SCT060 BKN080
      AMD LTD TO CLD VIS AND WIND=



000
FTUS45 KSLC 051120
TAFSGU
TAF
KSGU 051120Z 0512/0612 VRB05KT P6SM VCSH SCT080 BKN100
     FM052000 22010KT P6SM VCSH SCT060 BKN070
     FM060200 VRB05KT P6SM SCT060 BKN080
      AMD LTD TO CLD VIS AND WIND=



000
FTUS45 KSLC 051120
TAFLGU
TAF
KLGU 051120Z 0512/0612 VRB05KT P6SM FEW060 BKN100
     FM051800 VRB05KT P6SM VCSH SCT060 BKN080
     FM060100 VRB05KT P6SM SCT060 BKN080=



000
FTUS45 KSLC 051120
TAFENV
TAF
KENV 051120Z 0512/0612 VRB05KT P6SM SCT080 BKN100
     FM051500 12007KT P6SM SCT090 BKN100
      AMD LTD TO CLD VIS AND WIND=



000
FTUS45 KSLC 051120
TAFCDC
TAF
KCDC 051120Z 0512/0612 17005KT P6SM VCSH BKN070 BKN100
     FM051800 22008KT P6SM VCTS SCT060CB BKN080
     FM060300 19007KT P6SM SCT060 BKN080=



000
FTUS45 KSLC 051120
TAFBCE
TAF
KBCE 051120Z 0512/0612 27007KT P6SM VCSH SCT050 BKN060
     FM051800 14009KT P6SM VCTS SCT040CB BKN060
     FM060100 27007KT P6SM VCSH SCT040 BKN060=



000
FTUS45 KSLC 051120
TAFCDC
TAF
KCDC 051120Z 0512/0612 17005KT P6SM VCSH BKN070 BKN100
     FM051800 22008KT P6SM VCTS SCT060CB BKN080
     FM060300 19007KT P6SM SCT060 BKN080=



000
FTUS45 KSLC 051120
TAFCDC
TAF
KCDC 051120Z 0512/0612 17005KT P6SM VCSH BKN070 BKN100
     FM051800 22008KT P6SM VCTS SCT060CB BKN080
     FM060300 19007KT P6SM SCT060 BKN080=



000
FTUS45 KSLC 051120
TAFSLC
TAF
KSLC 051120Z 0512/0618 14007KT P6SM FEW070 BKN120
     FM051800 32007KT P6SM VCSH SCT060 BKN080
     FM060300 17006KT P6SM SCT060 BKN080=



000
FTUS45 KSLC 051120
TAFSLC
TAF
KSLC 051120Z 0512/0618 14007KT P6SM FEW070 BKN120
     FM051800 32007KT P6SM VCSH SCT060 BKN080
     FM060300 17006KT P6SM SCT060 BKN080=



000
FTUS45 KSLC 051120
TAFLGU
TAF
KLGU 051120Z 0512/0612 VRB05KT P6SM FEW060 BKN100
     FM051800 VRB05KT P6SM VCSH SCT060 BKN080
     FM060100 VRB05KT P6SM SCT060 BKN080=



000
FTUS45 KSLC 051120
TAFOGD
TAF
KOGD 051120Z 0512/0612 17006KT P6SM FEW070 SCT110
     FM051800 29005KT P6SM VCSH SCT060 BKN080
     FM060300 15005KT P6SM SCT060 BKN080=



000
FTUS45 KSLC 051120
TAFPVU
TAF
KPVU 051120Z 0512/0612 14005KT P6SM FEW070 SCT100
     FM052000 22007KT P6SM VCSH SCT060 BKN080
     FM060300 VRB04KT P6SM SCT060 BKN080
      AMD LTD TO CLD VIS AND WIND=



000
FTUS45 KSLC 051120
TAFPVU
TAF
KPVU 051120Z 0512/0612 14005KT P6SM FEW070 SCT100
     FM052000 22007KT P6SM VCSH SCT060 BKN080
     FM060300 VRB04KT P6SM SCT060 BKN080
      AMD LTD TO CLD VIS AND WIND=



000
FTUS45 KSLC 051120
TAFSGU
TAF
KSGU 051120Z 0512/0612 VRB05KT P6SM VCSH SCT080 BKN100
     FM052000 22010KT P6SM VCSH SCT060 BKN070
     FM060200 VRB05KT P6SM SCT060 BKN080
      AMD LTD TO CLD VIS AND WIND=



000
FTUS45 KSLC 051120
TAFPVU
TAF
KPVU 051120Z 0512/0612 14005KT P6SM FEW070 SCT100
     FM052000 22007KT P6SM VCSH SCT060 BKN080
     FM060300 VRB04KT P6SM SCT060 BKN080
      AMD LTD TO CLD VIS AND WIND=



000
FTUS45 KSLC 051120
TAFBCE
TAF
KBCE 051120Z 0512/0612 27007KT P6SM VCSH SCT050 BKN060
     FM051800 14009KT P6SM VCTS SCT040CB BKN060
     FM060100 27007KT P6SM VCSH SCT040 BKN060=



000
FTUS45 KSLC 050905 AAA
TAFSLC
TAF AMD
KSLC 050905Z 0509/0612 14007KT P6SM FEW070 BKN120
     FM051800 32007KT P6SM VCSH SCT060 BKN080
     FM060300 17006KT P6SM SCT060 BKN080=



000
FTUS45 KSLC 050905 AAA
TAFSLC
TAF AMD
KSLC 050905Z 0509/0612 14007KT P6SM FEW070 BKN120
     FM051800 32007KT P6SM VCSH SCT060 BKN080
     FM060300 17006KT P6SM SCT060 BKN080=



000
FTUS45 KSLC 050526
TAFSGU
TAF
KSGU 050526Z 0506/0606 VRB05KT P6SM VCSH SCT080 BKN100
     FM050800 VRB05KT P6SM SCT080 BKN100
     FM052000 22010KT P6SM VCSH SCT060 BKN080
      AMD LTD TO CLD VIS AND WIND=



000
FTUS45 KSLC 050526
TAFBCE
TAF
KBCE 050526Z 0506/0606 VRB05KT P6SM VCSH SCT040 BKN050
     FM050900 27007KT P6SM SCT050 BKN070
     FM051800 14009KT P6SM VCTS SCT040CB BKN060
     FM060100 27007KT P6SM VCSH SCT040 BKN060=



000
FTUS45 KSLC 050526
TAFENV
TAF
KENV 050526Z 0506/0606 VRB05KT P6SM SCT080 BKN100
     FM051500 12007KT P6SM SCT090 BKN100
      AMD LTD TO CLD VIS AND WIND=



000
FTUS45 KSLC 050526
TAFLGU
TAF
KLGU 050526Z 0506/0606 VRB05KT P6SM FEW060 BKN100
     FM051800 VRB05KT P6SM VCSH SCT060 BKN080
     FM060100 VRB05KT P6SM SCT060 BKN080=



000
FTUS45 KSLC 050526
TAFOGD
TAF
KOGD 050526Z 0506/0606 17006KT P6SM FEW070 SCT110
     FM051800 29005KT P6SM VCSH SCT060 BKN080
     FM060300 15005KT P6SM SCT060 BKN080=



000
FTUS45 KSLC 050526
TAFCDC
TAF
KCDC 050526Z 0506/0606 17005KT P6SM VCSH BKN070 BKN100
     FM051800 22008KT P6SM VCTS SCT060CB BKN080
     FM060300 19007KT P6SM SCT060 BKN080=



000
FTUS45 KSLC 050526
TAFCDC
TAF
KCDC 050526Z 0506/0606 17005KT P6SM VCSH BKN070 BKN100
     FM051800 22008KT P6SM VCTS SCT060CB BKN080
     FM060300 19007KT P6SM SCT060 BKN080=



000
FTUS45 KSLC 050526
TAFSLC
TAF
KSLC 050526Z 0506/0612 14007KT P6SM FEW070 BKN120
     FM051800 32007KT P6SM VCSH SCT060 BKN080
     FM060300 17006KT P6SM SCT060 BKN080=



000
FTUS45 KSLC 050526
TAFPVU
TAF
KPVU 050526Z 0506/0606 14005KT P6SM FEW070 SCT100
     FM052000 22007KT P6SM VCSH SCT060 BKN080
     FM060300 VRB04KT P6SM SCT060 BKN080
      AMD LTD TO CLD VIS AND WIND=



000
FTUS45 KSLC 050526
TAFSLC
TAF
KSLC 050526Z 0506/0612 14007KT P6SM FEW070 BKN120
     FM051800 32007KT P6SM VCSH SCT060 BKN080
     FM060300 17006KT P6SM SCT060 BKN080=



000
FTUS45 KSLC 050526
TAFOGD
TAF
KOGD 050526Z 0506/0606 17006KT P6SM FEW070 SCT110
     FM051800 29005KT P6SM VCSH SCT060 BKN080
     FM060300 15005KT P6SM SCT060 BKN080=



000
FTUS45 KSLC 050526
TAFENV
TAF
KENV 050526Z 0506/0606 VRB05KT P6SM SCT080 BKN100
     FM051500 12007KT P6SM SCT090 BKN100
      AMD LTD TO CLD VIS AND WIND=



000
FTUS45 KSLC 050526
TAFPVU
TAF
KPVU 050526Z 0506/0606 14005KT P6SM FEW070 SCT100
     FM052000 22007KT P6SM VCSH SCT060 BKN080
     FM060300 VRB04KT P6SM SCT060 BKN080
      AMD LTD TO CLD VIS AND WIND=



000
FTUS45 KSLC 050526
TAFLGU
TAF
KLGU 050526Z 0506/0606 VRB05KT P6SM FEW060 BKN100
     FM051800 VRB05KT P6SM VCSH SCT060 BKN080
     FM060100 VRB05KT P6SM SCT060 BKN080=



000
FTUS45 KSLC 050322 AAB
TAFSGU
TAF AMD
KSGU 050322Z 0503/0524 33011KT P6SM VCSH BKN070 BKN150
     FM050400 VRB05KT P6SM SCT100 BKN200
      AMD LTD TO CLD VIS AND WIND=



000
FTUS45 KSLC 050322 AAB
TAFSGU
TAF AMD
KSGU 050322Z 0503/0524 33011KT P6SM VCSH BKN070 BKN150
     FM050400 VRB05KT P6SM SCT100 BKN200
      AMD LTD TO CLD VIS AND WIND=



000
FTUS45 KSLC 050322 AAB
TAFENV
TAF AMD
KENV 050322Z 0503/0524 01012G22KT P6SM VCSH BKN090 BKN150
     FM050500 VRB05KT P6SM FEW090 BKN150
      AMD LTD TO CLD VIS AND WIND=



000
FTUS45 KSLC 050253 AAB
TAFSLC
TAF AMD
KSLC 050253Z 0503/0606 14007KT P6SM FEW070 BKN120
     FM051800 32007KT P6SM VCSH SCT070 BKN110=



000
FTUS45 KSLC 050253 AAB
TAFSLC
TAF AMD
KSLC 050253Z 0503/0606 14007KT P6SM FEW070 BKN120
     FM051800 32007KT P6SM VCSH SCT070 BKN110=



000
FTUS45 KSLC 050253 AAB
TAFSLC
TAF AMD
KSLC 050253Z 0503/0606 14007KT P6SM FEW070 BKN120
     FM051800 32007KT P6SM VCSH SCT070 BKN110=



000
FTUS45 KSLC 050251 AAA
TAFSGU
TAF AMD
KSGU 050251Z 0503/0524 27011KT P6SM VCSH BKN070 BKN150
     FM050400 VRB05KT P6SM SCT100 BKN200
      AMD LTD TO CLD VIS AND WIND=



000
FTUS45 KSLC 050251 AAA
TAFSGU
TAF AMD
KSGU 050251Z 0503/0524 27011KT P6SM VCSH BKN070 BKN150
     FM050400 VRB05KT P6SM SCT100 BKN200
      AMD LTD TO CLD VIS AND WIND=



000
FTUS45 KSLC 050247 AAA
TAFENV
TAF AMD
KENV 050247Z 0503/0524 01012KT P6SM VCSH BKN090 BKN150
     FM050500 VRB05KT P6SM FEW090 BKN150
      AMD LTD TO CLD VIS AND WIND=



000
FTUS45 KSLC 050247 AAA
TAFENV
TAF AMD
KENV 050247Z 0503/0524 01012KT P6SM VCSH BKN090 BKN150
     FM050500 VRB05KT P6SM FEW090 BKN150
      AMD LTD TO CLD VIS AND WIND=



000
FTUS45 KSLC 050136 AAA
TAFBCE
TAF AMD
KBCE 050136Z 0502/0524 02009KT P6SM VCSH BKN050 BKN100
     FM050300 26007KT P6SM SCT060 BKN100
     FM051600 14009KT P6SM VCTS SCT040CB BKN060=



000
FTUS45 KSLC 050136 AAA
TAFBCE
TAF AMD
KBCE 050136Z 0502/0524 02009KT P6SM VCSH BKN050 BKN100
     FM050300 26007KT P6SM SCT060 BKN100
     FM051600 14009KT P6SM VCTS SCT040CB BKN060=



000
FTUS45 KSLC 042339
TAFENV
TAF
KENV 042339Z 0500/0524 25010KT P6SM VCSH BKN090 BKN150
     FM050100 VRB05KT P6SM FEW090 BKN150
      AMD LTD TO CLD VIS AND WIND=



000
FTUS45 KSLC 042339
TAFLGU
TAF
KLGU 042339Z 0500/0524 19009KT P6SM VCSH SCT060 BKN110
     FM050400 VRB05KT P6SM FEW060 SCT120=



000
FTUS45 KSLC 042339
TAFLGU
TAF
KLGU 042339Z 0500/0524 19009KT P6SM VCSH SCT060 BKN110
     FM050400 VRB05KT P6SM FEW060 SCT120=



000
FTUS45 KSLC 042339
TAFENV
TAF
KENV 042339Z 0500/0524 25010KT P6SM VCSH BKN090 BKN150
     FM050100 VRB05KT P6SM FEW090 BKN150
      AMD LTD TO CLD VIS AND WIND=



000
FTUS45 KSLC 042339
TAFSLC
TAF
KSLC 042339Z 0500/0606 02006KT P6SM VCSH SCT070 BKN100
     FM050200 15008KT P6SM FEW070 SCT120
     FM051800 32007KT P6SM VCSH SCT070 BKN110=



000
FTUS45 KSLC 042339
TAFSLC
TAF
KSLC 042339Z 0500/0606 02006KT P6SM VCSH SCT070 BKN100
     FM050200 15008KT P6SM FEW070 SCT120
     FM051800 32007KT P6SM VCSH SCT070 BKN110=



000
FTUS45 KSLC 042339
TAFOGD
TAF
KOGD 042339Z 0500/0524 11011KT P6SM VCSH SCT070 BKN120
     FM050100 14011KT P6SM FEW070 BKN140
     FM050300 17006KT P6SM FEW070 SCT120=



000
FTUS45 KSLC 042339
TAFPVU
TAF
KPVU 042339Z 0500/0524 25006KT P6SM VCSH SCT070 BKN110
     FM050400 14005KT P6SM FEW070 SCT100
     FM052000 32008KT P6SM VCSH SCT070 BKN110
      AMD LTD TO CLD VIS AND WIND=



000
FTUS45 KSLC 042339
TAFLGU
TAF
KLGU 042339Z 0500/0524 19009KT P6SM VCSH SCT060 BKN110
     FM050400 VRB05KT P6SM FEW060 SCT120=



000
FTUS45 KSLC 042339
TAFSLC
TAF
KSLC 042339Z 0500/0606 02006KT P6SM VCSH SCT070 BKN100
     FM050200 15008KT P6SM FEW070 SCT120
     FM051800 32007KT P6SM VCSH SCT070 BKN110=



000
FTUS45 KSLC 042339
TAFCDC
TAF
KCDC 042339Z 0500/0524 19010KT P6SM VCTS SCT050CB BKN080
     FM050200 17005KT P6SM SCT070 BKN100
     FM051800 22008KT P6SM VCTS SCT060CB BKN100=



000
FTUS45 KSLC 042339
TAFBCE
TAF
KBCE 042339Z 0500/0524 15010KT P6SM VCTS SCT040CB BKN060
     FM050100 30007KT P6SM SCT060 BKN100
     FM051600 14009KT P6SM VCTS SCT040CB BKN060=



000
FTUS45 KSLC 042339
TAFSGU
TAF
KSGU 042339Z 0500/0524 28011KT P6SM SCT070 BKN150
     FM050200 VRB05KT P6SM SCT100 BKN200
      AMD LTD TO CLD VIS AND WIND=



000
FTUS45 KSLC 042339
TAFSGU
TAF
KSGU 042339Z 0500/0524 28011KT P6SM SCT070 BKN150
     FM050200 VRB05KT P6SM SCT100 BKN200
      AMD LTD TO CLD VIS AND WIND=



000
FTUS45 KSLC 042339
TAFOGD
TAF
KOGD 042339Z 0500/0524 11011KT P6SM VCSH SCT070 BKN120
     FM050100 14011KT P6SM FEW070 BKN140
     FM050300 17006KT P6SM FEW070 SCT120=



000
FTUS45 KSLC 042339
TAFPVU
TAF
KPVU 042339Z 0500/0524 25006KT P6SM VCSH SCT070 BKN110
     FM050400 14005KT P6SM FEW070 SCT100
     FM052000 32008KT P6SM VCSH SCT070 BKN110
      AMD LTD TO CLD VIS AND WIND=



000
FTUS45 KSLC 042339
TAFBCE
TAF
KBCE 042339Z 0500/0524 15010KT P6SM VCTS SCT040CB BKN060
     FM050100 30007KT P6SM SCT060 BKN100
     FM051600 14009KT P6SM VCTS SCT040CB BKN060=



000
FTUS45 KSLC 042339
TAFOGD
TAF
KOGD 042339Z 0500/0524 11011KT P6SM VCSH SCT070 BKN120
     FM050100 14011KT P6SM FEW070 BKN140
     FM050300 17006KT P6SM FEW070 SCT120=



000
FTUS45 KSLC 042339
TAFPVU
TAF
KPVU 042339Z 0500/0524 25006KT P6SM VCSH SCT070 BKN110
     FM050400 14005KT P6SM FEW070 SCT100
     FM052000 32008KT P6SM VCSH SCT070 BKN110
      AMD LTD TO CLD VIS AND WIND=



000
FTUS45 KSLC 042339
TAFSGU
TAF
KSGU 042339Z 0500/0524 28011KT P6SM SCT070 BKN150
     FM050200 VRB05KT P6SM SCT100 BKN200
      AMD LTD TO CLD VIS AND WIND=



000
FTUS45 KSLC 042339
TAFBCE
TAF
KBCE 042339Z 0500/0524 15010KT P6SM VCTS SCT040CB BKN060
     FM050100 30007KT P6SM SCT060 BKN100
     FM051600 14009KT P6SM VCTS SCT040CB BKN060=



000
FTUS45 KSLC 042339
TAFSLC
TAF
KSLC 042339Z 0500/0606 02006KT P6SM VCSH SCT070 BKN100
     FM050200 15008KT P6SM FEW070 SCT120
     FM051800 32007KT P6SM VCSH SCT070 BKN110=



000
FTUS45 KSLC 042339
TAFENV
TAF
KENV 042339Z 0500/0524 25010KT P6SM VCSH BKN090 BKN150
     FM050100 VRB05KT P6SM FEW090 BKN150
      AMD LTD TO CLD VIS AND WIND=



000
FTUS45 KSLC 042339
TAFCDC
TAF
KCDC 042339Z 0500/0524 19010KT P6SM VCTS SCT050CB BKN080
     FM050200 17005KT P6SM SCT070 BKN100
     FM051800 22008KT P6SM VCTS SCT060CB BKN100=



000
FTUS45 KSLC 042339
TAFCDC
TAF
KCDC 042339Z 0500/0524 19010KT P6SM VCTS SCT050CB BKN080
     FM050200 17005KT P6SM SCT070 BKN100
     FM051800 22008KT P6SM VCTS SCT060CB BKN100=



000
FTUS45 KSLC 042255 AAC
TAFOGD
TAF AMD
KOGD 042255Z 0423/0518 08011KT P6SM VCTS SCT060CB BKN090
     FM042330 17011KT P6SM VCSH SCT070 BKN100
     FM050200 17006KT P6SM FEW060 BKN120=



000
FTUS45 KSLC 042223 AAA
TAFLGU
TAF AMD
KLGU 042223Z 0422/0518 13011KT P6SM -TSRA SCT060CB BKN090
     FM042330 VRB05KT P6SM VCSH SCT060 BKN110
     FM050400 VRB05KT P6SM FEW060 SCT120=



000
FTUS45 KSLC 042223 AAA
TAFLGU
TAF AMD
KLGU 042223Z 0422/0518 13011KT P6SM -TSRA SCT060CB BKN090
     FM042330 VRB05KT P6SM VCSH SCT060 BKN110
     FM050400 VRB05KT P6SM FEW060 SCT120=



000
FTUS45 KSLC 042223 AAA
TAFLGU
TAF AMD
KLGU 042223Z 0422/0518 13011KT P6SM -TSRA SCT060CB BKN090
     FM042330 VRB05KT P6SM VCSH SCT060 BKN110
     FM050400 VRB05KT P6SM FEW060 SCT120=



000
FTUS45 KSLC 042211 AAA
TAFBCE
TAF AMD
KBCE 042211Z 0422/0518 26011KT P6SM VCSH SCT040 BKN060
     FM050500 27007KT P6SM SCT060 BKN100=



000
FTUS45 KSLC 042211 AAA
TAFBCE
TAF AMD
KBCE 042211Z 0422/0518 26011KT P6SM VCSH SCT040 BKN060
     FM050500 27007KT P6SM SCT060 BKN100=



000
FTUS45 KSLC 042211 AAA
TAFBCE
TAF AMD
KBCE 042211Z 0422/0518 26011KT P6SM VCSH SCT040 BKN060
     FM050500 27007KT P6SM SCT060 BKN100=



000
FTUS45 KSLC 042211 AAA
TAFBCE
TAF AMD
KBCE 042211Z 0422/0518 26011KT P6SM VCSH SCT040 BKN060
     FM050500 27007KT P6SM SCT060 BKN100=



000
FTUS45 KSLC 042210 AAA
TAFSGU
TAF AMD
KSGU 042210Z 0422/0518 29011KT P6SM SCT070 BKN120
     FM050200 VRB05KT P6SM SCT100 BKN200
      AMD LTD TO CLD VIS AND WIND=



000
FTUS45 KSLC 042202 AAC
TAFSLC
TAF AMD
KSLC 042202Z 0422/0524 21008KT P6SM VCTS BKN070CB BKN090
     FM042300 18006KT P6SM SCT070 BKN120
     FM050300 15008KT P6SM FEW070 SCT120=



000
FTUS45 KSLC 042202 AAC
TAFSLC
TAF AMD
KSLC 042202Z 0422/0524 21008KT P6SM VCTS BKN070CB BKN090
     FM042300 18006KT P6SM SCT070 BKN120
     FM050300 15008KT P6SM FEW070 SCT120=



000
FTUS45 KSLC 042142 AAB
TAFOGD
TAF AMD
KOGD 042142Z 0422/0518 08011KT P6SM VCTS SCT060CB BKN080
     FM042300 15009KT P6SM VCSH SCT060 BKN090
     FM050300 17006KT P6SM FEW060 BKN120=



000
FTUS45 KSLC 042142 AAB
TAFOGD
TAF AMD
KOGD 042142Z 0422/0518 08011KT P6SM VCTS SCT060CB BKN080
     FM042300 15009KT P6SM VCSH SCT060 BKN090
     FM050300 17006KT P6SM FEW060 BKN120=



000
FTUS45 KSLC 042124 AAC
TAFSLC
TAF AMD
KSLC 042124Z 0421/0524 09011G20KT 6SM -TSRA BKN070CB BKN090
     FM042230 11006KT P6SM VCSH SCT060 BKN100
     FM050300 15008KT P6SM FEW070 SCT120=



000
FTUS45 KSLC 042124 AAA
TAFOGD
TAF AMD
KOGD 042124Z 0421/0518 32006KT P6SM VCTS SCT060CB BKN080
     FM042200 10010KT 6SM -TSRA BKN060CB
     FM042300 15009KT P6SM VCSH SCT060 BKN090
     FM050300 17006KT P6SM FEW060 BKN120=



000
FTUS45 KSLC 042124 AAC
TAFSLC
TAF AMD
KSLC 042124Z 0421/0524 09011G20KT 6SM -TSRA BKN070CB BKN090
     FM042230 11006KT P6SM VCSH SCT060 BKN100
     FM050300 15008KT P6SM FEW070 SCT120=



000
FTUS45 KSLC 042124 AAA
TAFOGD
TAF AMD
KOGD 042124Z 0421/0518 32006KT P6SM VCTS SCT060CB BKN080
     FM042200 10010KT 6SM -TSRA BKN060CB
     FM042300 15009KT P6SM VCSH SCT060 BKN090
     FM050300 17006KT P6SM FEW060 BKN120=



000
FTUS45 KSLC 042048 AAB
TAFSLC
TAF AMD
KSLC 042048Z 0421/0524 31007KT P6SM VCTS SCT070CB BKN110
     FM042300 11006KT P6SM VCSH SCT060 BKN100
     FM050300 15008KT P6SM FEW070 SCT120=



000
FTUS45 KSLC 042048 AAB
TAFSLC
TAF AMD
KSLC 042048Z 0421/0524 31007KT P6SM VCTS SCT070CB BKN110
     FM042300 11006KT P6SM VCSH SCT060 BKN100
     FM050300 15008KT P6SM FEW070 SCT120=



000
FTUS45 KSLC 041927 AAA
TAFCDC
TAF AMD
KCDC 041927Z 0419/0518 11011KT P6SM VCSH SCT050 BKN080
     FM050300 17005KT P6SM SCT070 BKN100=



000
FTUS45 KSLC 041927 AAA
TAFCDC
TAF AMD
KCDC 041927Z 0419/0518 11011KT P6SM VCSH SCT050 BKN080
     FM050300 17005KT P6SM SCT070 BKN100=



000
FTUS45 KSLC 041736
TAFOGD
TAF
KOGD 041736Z 0418/0518 17006KT P6SM FEW090 SCT140
     FM042000 28006KT P6SM SCT070 BKN110
     FM050300 17006KT P6SM FEW070 SCT120=



000
FTUS45 KSLC 041736
TAFLGU
TAF
KLGU 041736Z 0418/0518 VRB05KT P6SM FEW090 SCT120
     FM041900 VRB05KT P6SM VCSH SCT060 BKN110
     FM050400 VRB05KT P6SM FEW060 SCT120=



000
FTUS45 KSLC 041736
TAFENV
TAF
KENV 041736Z 0418/0518 12008KT P6SM FEW070 SCT150
     FM042100 14008KT P6SM VCSH SCT070 BKN120
     FM050300 VRB05KT P6SM FEW070 SCT140
      AMD LTD TO CLD VIS AND WIND=



000
FTUS45 KSLC 041736
TAFPVU
TAF
KPVU 041736Z 0418/0518 25005KT P6SM SCT070 SCT110
     FM041900 12006KT P6SM VCSH SCT070 BKN110
     FM050500 14005KT P6SM FEW070 SCT100
      AMD LTD TO CLD VIS AND WIND=



000
FTUS45 KSLC 041736
TAFSGU
TAF
KSGU 041736Z 0418/0518 25010KT P6SM VCSH SCT070 BKN090
     FM050200 VRB05KT P6SM SCT080 BKN100
      AMD LTD TO CLD VIS AND WIND=



000
FTUS45 KSLC 041736
TAFSLC
TAF
KSLC 041736Z 0418/0524 15004KT P6SM FEW080 SCT120
     FM041900 31007KT P6SM SCT070 SCT120
     FM042100 32006KT P6SM SCT070 BKN110
     FM050300 15008KT P6SM FEW070 SCT120=



000
FTUS45 KSLC 041736
TAFCDC
TAF
KCDC 041736Z 0418/0518 21009KT P6SM VCSH SCT060 BKN090
      TEMPO 0418/0420 VRB15G25KT 6SM -TSRA BKN060CB
     FM050300 17005KT P6SM SCT070 BKN100=



000
FTUS45 KSLC 041736
TAFPVU
TAF
KPVU 041736Z 0418/0518 25005KT P6SM SCT070 SCT110
     FM041900 12006KT P6SM VCSH SCT070 BKN110
     FM050500 14005KT P6SM FEW070 SCT100
      AMD LTD TO CLD VIS AND WIND=



000
FTUS45 KSLC 041736
TAFENV
TAF
KENV 041736Z 0418/0518 12008KT P6SM FEW070 SCT150
     FM042100 14008KT P6SM VCSH SCT070 BKN120
     FM050300 VRB05KT P6SM FEW070 SCT140
      AMD LTD TO CLD VIS AND WIND=



000
FTUS45 KSLC 041736
TAFLGU
TAF
KLGU 041736Z 0418/0518 VRB05KT P6SM FEW090 SCT120
     FM041900 VRB05KT P6SM VCSH SCT060 BKN110
     FM050400 VRB05KT P6SM FEW060 SCT120=



000
FTUS45 KSLC 041736
TAFSGU
TAF
KSGU 041736Z 0418/0518 25010KT P6SM VCSH SCT070 BKN090
     FM050200 VRB05KT P6SM SCT080 BKN100
      AMD LTD TO CLD VIS AND WIND=



000
FTUS45 KSLC 041736
TAFBCE
TAF
KBCE 041736Z 0418/0518 14009KT P6SM VCTS SCT040CB BKN070
     FM050100 27007KT P6SM VCSH SCT060 BKN100=



000
FTUS45 KSLC 041736
TAFBCE
TAF
KBCE 041736Z 0418/0518 14009KT P6SM VCTS SCT040CB BKN070
     FM050100 27007KT P6SM VCSH SCT060 BKN100=



000
FTUS45 KSLC 041736
TAFCDC
TAF
KCDC 041736Z 0418/0518 21009KT P6SM VCSH SCT060 BKN090
      TEMPO 0418/0420 VRB15G25KT 6SM -TSRA BKN060CB
     FM050300 17005KT P6SM SCT070 BKN100=



000
FTUS45 KSLC 041736
TAFOGD
TAF
KOGD 041736Z 0418/0518 17006KT P6SM FEW090 SCT140
     FM042000 28006KT P6SM SCT070 BKN110
     FM050300 17006KT P6SM FEW070 SCT120=



000
FTUS45 KSLC 041736
TAFSLC
TAF
KSLC 041736Z 0418/0524 15004KT P6SM FEW080 SCT120
     FM041900 31007KT P6SM SCT070 SCT120
     FM042100 32006KT P6SM SCT070 BKN110
     FM050300 15008KT P6SM FEW070 SCT120=



000
FTUS45 KSLC 041541 AAB
TAFSGU
TAF AMD
KSGU 041541Z 0416/0512 10010KT P6SM VCSH SCT050 BKN070
     FM042000 25010KT P6SM VCSH SCT080 BKN100
     FM050200 VRB05KT P6SM SCT080 BKN100
      AMD LTD TO CLD VIS AND WIND=



000
FTUS45 KSLC 041541 AAB
TAFSGU
TAF AMD
KSGU 041541Z 0416/0512 10010KT P6SM VCSH SCT050 BKN070
     FM042000 25010KT P6SM VCSH SCT080 BKN100
     FM050200 VRB05KT P6SM SCT080 BKN100
      AMD LTD TO CLD VIS AND WIND=



000
FTUS45 KSLC 041503 AAC
TAFSLC
TAF AMD
KSLC 041503Z 0415/0518 15010KT P6SM FEW080 SCT120
     FM041900 31008KT P6SM SCT060 BKN100
     FM050300 15008KT P6SM FEW090 BKN120=



000
FTUS45 KSLC 041503 AAC
TAFSLC
TAF AMD
KSLC 041503Z 0415/0518 15010KT P6SM FEW080 SCT120
     FM041900 31008KT P6SM SCT060 BKN100
     FM050300 15008KT P6SM FEW090 BKN120=



000
FTUS45 KSLC 041317 AAB
TAFCDC
TAF AMD
KCDC 041317Z 0413/0512 20008KT P6SM VCSH SCT060 BKN100
     FM050300 17005KT P6SM SCT070 BKN100=



000
FTUS45 KSLC 041317 AAB
TAFCDC
TAF AMD
KCDC 041317Z 0413/0512 20008KT P6SM VCSH SCT060 BKN100
     FM050300 17005KT P6SM SCT070 BKN100=



000
FTUS45 KSLC 041317 AAB
TAFCDC
TAF AMD
KCDC 041317Z 0413/0512 20008KT P6SM VCSH SCT060 BKN100
     FM050300 17005KT P6SM SCT070 BKN100=



000
FTUS45 KSLC 041317 AAB
TAFCDC
TAF AMD
KCDC 041317Z 0413/0512 20008KT P6SM VCSH SCT060 BKN100
     FM050300 17005KT P6SM SCT070 BKN100=



000
FTUS45 KSLC 041314 AAA
TAFENV
TAF AMD
KENV 041314Z 0413/0512 04009KT P6SM SCT070 BKN120
     FM041700 12008KT P6SM SCT070 BKN120
     FM041800 14008KT P6SM SCT070 BKN100
     FM050300 VRB05KT P6SM SCT070 BKN100
      AMD LTD TO CLD VIS AND WIND=



000
FTUS45 KSLC 041314 AAA
TAFENV
TAF AMD
KENV 041314Z 0413/0512 04009KT P6SM SCT070 BKN120
     FM041700 12008KT P6SM SCT070 BKN120
     FM041800 14008KT P6SM SCT070 BKN100
     FM050300 VRB05KT P6SM SCT070 BKN100
      AMD LTD TO CLD VIS AND WIND=



000
FTUS45 KSLC 041314 AAA
TAFENV
TAF AMD
KENV 041314Z 0413/0512 04009KT P6SM SCT070 BKN120
     FM041700 12008KT P6SM SCT070 BKN120
     FM041800 14008KT P6SM SCT070 BKN100
     FM050300 VRB05KT P6SM SCT070 BKN100
      AMD LTD TO CLD VIS AND WIND=



000
FTUS45 KSLC 041314 AAA
TAFENV
TAF AMD
KENV 041314Z 0413/0512 04009KT P6SM SCT070 BKN120
     FM041700 12008KT P6SM SCT070 BKN120
     FM041800 14008KT P6SM SCT070 BKN100
     FM050300 VRB05KT P6SM SCT070 BKN100
      AMD LTD TO CLD VIS AND WIND=



000
FTUS45 KSLC 041312 AAA
TAFSGU
TAF AMD
KSGU 041312Z 0413/0512 VRB05KT P6SM VCTS SCT080CB BKN100
     FM041400 VRB05KT P6SM VCSH BKN090
     FM042000 25010KT P6SM VCSH SCT080 BKN100
     FM050200 VRB05KT P6SM SCT080 BKN100
      AMD LTD TO CLD VIS AND WIND=



000
FTUS45 KSLC 041312 AAA
TAFSGU
TAF AMD
KSGU 041312Z 0413/0512 VRB05KT P6SM VCTS SCT080CB BKN100
     FM041400 VRB05KT P6SM VCSH BKN090
     FM042000 25010KT P6SM VCSH SCT080 BKN100
     FM050200 VRB05KT P6SM SCT080 BKN100
      AMD LTD TO CLD VIS AND WIND=



000
FTUS45 KSLC 041312 AAA
TAFSGU
TAF AMD
KSGU 041312Z 0413/0512 VRB05KT P6SM VCTS SCT080CB BKN100
     FM041400 VRB05KT P6SM VCSH BKN090
     FM042000 25010KT P6SM VCSH SCT080 BKN100
     FM050200 VRB05KT P6SM SCT080 BKN100
      AMD LTD TO CLD VIS AND WIND=



000
FTUS45 KSLC 041312 AAA
TAFSGU
TAF AMD
KSGU 041312Z 0413/0512 VRB05KT P6SM VCTS SCT080CB BKN100
     FM041400 VRB05KT P6SM VCSH BKN090
     FM042000 25010KT P6SM VCSH SCT080 BKN100
     FM050200 VRB05KT P6SM SCT080 BKN100
      AMD LTD TO CLD VIS AND WIND=



000
FTUS45 KSLC 041234 AAA
TAFCDC
TAF AMD
KCDC 041234Z 0413/0512 22008KT P6SM VCSH SCT060 BKN100
     FM050300 17005KT P6SM SCT070 BKN100=



000
FTUS45 KSLC 041234 AAA
TAFCDC
TAF AMD
KCDC 041234Z 0413/0512 22008KT P6SM VCSH SCT060 BKN100
     FM050300 17005KT P6SM SCT070 BKN100=



000
FTUS45 KSLC 041120
TAFPVU
TAF
KPVU 041120Z 0412/0512 VRB04KT P6SM BKN100
     FM041900 21005KT P6SM SCT070 BKN100
     FM050300 14005KT P6SM SCT070 BKN100
      AMD LTD TO CLD VIS AND WIND=



000
FTUS45 KSLC 041120
TAFENV
TAF
KENV 041120Z 0412/0512 04009KT P6SM SCT070 BKN120
     FM041400 12008KT P6SM SCT070 BKN120
     FM041800 14008KT P6SM SCT070 BKN100
     FM050300 VRB05KT P6SM SCT070 BKN100
      AMD LTD TO CLD VIS AND WIND=



000
FTUS45 KSLC 041120
TAFSLC
TAF
KSLC 041120Z 0412/0518 15010KT P6SM VCSH SCT060 BKN070
     FM041900 31008KT P6SM SCT060 BKN100
     FM050300 15008KT P6SM FEW090 BKN120=



000
FTUS45 KSLC 041120
TAFOGD
TAF
KOGD 041120Z 0412/0512 15006KT P6SM BKN100
     FM041900 28006KT P6SM SCT070 BKN100
     FM050300 17006KT P6SM SCT070 BKN100=



000
FTUS45 KSLC 041120
TAFENV
TAF
KENV 041120Z 0412/0512 04009KT P6SM SCT070 BKN120
     FM041400 12008KT P6SM SCT070 BKN120
     FM041800 14008KT P6SM SCT070 BKN100
     FM050300 VRB05KT P6SM SCT070 BKN100
      AMD LTD TO CLD VIS AND WIND=



000
FTUS45 KSLC 041120
TAFENV
TAF
KENV 041120Z 0412/0512 04009KT P6SM SCT070 BKN120
     FM041400 12008KT P6SM SCT070 BKN120
     FM041800 14008KT P6SM SCT070 BKN100
     FM050300 VRB05KT P6SM SCT070 BKN100
      AMD LTD TO CLD VIS AND WIND=



000
FTUS45 KSLC 041120
TAFPVU
TAF
KPVU 041120Z 0412/0512 VRB04KT P6SM BKN100
     FM041900 21005KT P6SM SCT070 BKN100
     FM050300 14005KT P6SM SCT070 BKN100
      AMD LTD TO CLD VIS AND WIND=



000
FTUS45 KSLC 041120
TAFENV
TAF
KENV 041120Z 0412/0512 04009KT P6SM SCT070 BKN120
     FM041400 12008KT P6SM SCT070 BKN120
     FM041800 14008KT P6SM SCT070 BKN100
     FM050300 VRB05KT P6SM SCT070 BKN100
      AMD LTD TO CLD VIS AND WIND=



000
FTUS45 KSLC 041120
TAFSGU
TAF
KSGU 041120Z 0412/0512 VRB05KT P6SM VCSH SCT080 BKN100
     FM042000 25010KT P6SM VCSH SCT080 BKN100
     FM050200 VRB05KT P6SM SCT080 BKN100
      AMD LTD TO CLD VIS AND WIND=



000
FTUS45 KSLC 041120
TAFOGD
TAF
KOGD 041120Z 0412/0512 15006KT P6SM BKN100
     FM041900 28006KT P6SM SCT070 BKN100
     FM050300 17006KT P6SM SCT070 BKN100=



000
FTUS45 KSLC 041120
TAFSLC
TAF
KSLC 041120Z 0412/0518 15010KT P6SM VCSH SCT060 BKN070
     FM041900 31008KT P6SM SCT060 BKN100
     FM050300 15008KT P6SM FEW090 BKN120=



000
FTUS45 KSLC 041120
TAFPVU
TAF
KPVU 041120Z 0412/0512 VRB04KT P6SM BKN100
     FM041900 21005KT P6SM SCT070 BKN100
     FM050300 14005KT P6SM SCT070 BKN100
      AMD LTD TO CLD VIS AND WIND=



000
FTUS45 KSLC 041120
TAFSLC
TAF
KSLC 041120Z 0412/0518 15010KT P6SM VCSH SCT060 BKN070
     FM041900 31008KT P6SM SCT060 BKN100
     FM050300 15008KT P6SM FEW090 BKN120=



000
FTUS45 KSLC 041120
TAFLGU
TAF
KLGU 041120Z 0412/0512 VRB03KT P6SM FEW090 BKN120
     FM041900 VRB05KT P6SM SCT070 BKN100=



000
FTUS45 KSLC 041120
TAFLGU
TAF
KLGU 041120Z 0412/0512 VRB03KT P6SM FEW090 BKN120
     FM041900 VRB05KT P6SM SCT070 BKN100=



000
FTUS45 KSLC 041120
TAFSGU
TAF
KSGU 041120Z 0412/0512 VRB05KT P6SM VCSH SCT080 BKN100
     FM042000 25010KT P6SM VCSH SCT080 BKN100
     FM050200 VRB05KT P6SM SCT080 BKN100
      AMD LTD TO CLD VIS AND WIND=



000
FTUS45 KSLC 041120
TAFCDC
TAF
KCDC 041120Z 0412/0512 VRB05KT P6SM -SHRA BKN050
     FM041400 VRB05KT P6SM VCSH SCT050 BKN100
     FM041900 22009KT P6SM VCSH SCT070 BKN100
     FM050300 17005KT P6SM SCT070 BKN100=



000
FTUS45 KSLC 041120
TAFCDC
TAF
KCDC 041120Z 0412/0512 VRB05KT P6SM -SHRA BKN050
     FM041400 VRB05KT P6SM VCSH SCT050 BKN100
     FM041900 22009KT P6SM VCSH SCT070 BKN100
     FM050300 17005KT P6SM SCT070 BKN100=



000
FTUS45 KSLC 041120
TAFOGD
TAF
KOGD 041120Z 0412/0512 15006KT P6SM BKN100
     FM041900 28006KT P6SM SCT070 BKN100
     FM050300 17006KT P6SM SCT070 BKN100=



000
FTUS45 KSLC 041120
TAFLGU
TAF
KLGU 041120Z 0412/0512 VRB03KT P6SM FEW090 BKN120
     FM041900 VRB05KT P6SM SCT070 BKN100=



000
FTUS45 KSLC 041120
TAFSGU
TAF
KSGU 041120Z 0412/0512 VRB05KT P6SM VCSH SCT080 BKN100
     FM042000 25010KT P6SM VCSH SCT080 BKN100
     FM050200 VRB05KT P6SM SCT080 BKN100
      AMD LTD TO CLD VIS AND WIND=



000
FTUS45 KSLC 041120
TAFBCE
TAF
KBCE 041120Z 0412/0512 27009KT P6SM VCSH SCT070 BKN100
     FM041800 15009KT P6SM VCTS SCT060CB BKN100
     FM050100 27007KT P6SM VCSH SCT060 BKN100=



000
FTUS45 KSLC 041120
TAFCDC
TAF
KCDC 041120Z 0412/0512 VRB05KT P6SM -SHRA BKN050
     FM041400 VRB05KT P6SM VCSH SCT050 BKN100
     FM041900 22009KT P6SM VCSH SCT070 BKN100
     FM050300 17005KT P6SM SCT070 BKN100=



000
FTUS45 KSLC 041120
TAFSLC
TAF
KSLC 041120Z 0412/0518 15010KT P6SM VCSH SCT060 BKN070
     FM041900 31008KT P6SM SCT060 BKN100
     FM050300 15008KT P6SM FEW090 BKN120=



000
FTUS45 KSLC 041120
TAFPVU
TAF
KPVU 041120Z 0412/0512 VRB04KT P6SM BKN100
     FM041900 21005KT P6SM SCT070 BKN100
     FM050300 14005KT P6SM SCT070 BKN100
      AMD LTD TO CLD VIS AND WIND=



000
FTUS45 KSLC 041120
TAFSGU
TAF
KSGU 041120Z 0412/0512 VRB05KT P6SM VCSH SCT080 BKN100
     FM042000 25010KT P6SM VCSH SCT080 BKN100
     FM050200 VRB05KT P6SM SCT080 BKN100
      AMD LTD TO CLD VIS AND WIND=



000
FTUS45 KSLC 041120
TAFBCE
TAF
KBCE 041120Z 0412/0512 27009KT P6SM VCSH SCT070 BKN100
     FM041800 15009KT P6SM VCTS SCT060CB BKN100
     FM050100 27007KT P6SM VCSH SCT060 BKN100=



000
FTUS45 KSLC 041120
TAFOGD
TAF
KOGD 041120Z 0412/0512 15006KT P6SM BKN100
     FM041900 28006KT P6SM SCT070 BKN100
     FM050300 17006KT P6SM SCT070 BKN100=



000
FTUS45 KSLC 041120
TAFBCE
TAF
KBCE 041120Z 0412/0512 27009KT P6SM VCSH SCT070 BKN100
     FM041800 15009KT P6SM VCTS SCT060CB BKN100
     FM050100 27007KT P6SM VCSH SCT060 BKN100=



000
FTUS45 KSLC 041120
TAFCDC
TAF
KCDC 041120Z 0412/0512 VRB05KT P6SM -SHRA BKN050
     FM041400 VRB05KT P6SM VCSH SCT050 BKN100
     FM041900 22009KT P6SM VCSH SCT070 BKN100
     FM050300 17005KT P6SM SCT070 BKN100=



000
FTUS45 KSLC 041120
TAFBCE
TAF
KBCE 041120Z 0412/0512 27009KT P6SM VCSH SCT070 BKN100
     FM041800 15009KT P6SM VCTS SCT060CB BKN100
     FM050100 27007KT P6SM VCSH SCT060 BKN100=



000
FTUS45 KSLC 041120
TAFLGU
TAF
KLGU 041120Z 0412/0512 VRB03KT P6SM FEW090 BKN120
     FM041900 VRB05KT P6SM SCT070 BKN100=



000
FTUS45 KSLC 041047 AAA
TAFCDC
TAF AMD
KCDC 041047Z 0411/0506 06009KT P6SM -SHRA SCT050 BKN060
     FM041900 22009KT P6SM SCT070 BKN100
     FM050300 17005KT P6SM SCT070 BKN100=



000
FTUS45 KSLC 041046 AAC
TAFSLC
TAF AMD
KSLC 041046Z 0411/0512 17009KT P6SM -SHRA SCT060 BKN070
     FM041100 15007KT P6SM VCSH SCT060 BKN070
     FM041900 31008KT P6SM SCT060 BKN100
     FM050300 15008KT P6SM FEW090 BKN120=



000
FTUS45 KSLC 041046 AAC
TAFSLC
TAF AMD
KSLC 041046Z 0411/0512 17009KT P6SM -SHRA SCT060 BKN070
     FM041100 15007KT P6SM VCSH SCT060 BKN070
     FM041900 31008KT P6SM SCT060 BKN100
     FM050300 15008KT P6SM FEW090 BKN120=



000
FTUS45 KSLC 041046 AAC
TAFSLC
TAF AMD
KSLC 041046Z 0411/0512 17009KT P6SM -SHRA SCT060 BKN070
     FM041100 15007KT P6SM VCSH SCT060 BKN070
     FM041900 31008KT P6SM SCT060 BKN100
     FM050300 15008KT P6SM FEW090 BKN120=



000
FTUS45 KSLC 041046 AAC
TAFSLC
TAF AMD
KSLC 041046Z 0411/0512 17009KT P6SM -SHRA SCT060 BKN070
     FM041100 15007KT P6SM VCSH SCT060 BKN070
     FM041900 31008KT P6SM SCT060 BKN100
     FM050300 15008KT P6SM FEW090 BKN120=



000
FTUS45 KSLC 040921 AAB
TAFSLC
TAF AMD
KSLC 040921Z 0409/0512 10012KT P6SM -SHRA BKN060 BKN090
     FM041100 15007KT P6SM VCSH SCT060 BKN070
     FM041900 31008KT P6SM SCT060 BKN100
     FM050300 15008KT P6SM FEW090 BKN120=



000
FTUS45 KSLC 040921 AAB
TAFSLC
TAF AMD
KSLC 040921Z 0409/0512 10012KT P6SM -SHRA BKN060 BKN090
     FM041100 15007KT P6SM VCSH SCT060 BKN070
     FM041900 31008KT P6SM SCT060 BKN100
     FM050300 15008KT P6SM FEW090 BKN120=



000
FTUS45 KSLC 040902 AAA
TAFSLC
TAF AMD
KSLC 040902Z 0409/0512 10012KT P6SM -SHRA BKN060
     FM041100 15007KT P6SM VCSH BKN060
     FM041900 31008KT P6SM SCT060 BKN100
     FM050300 15008KT P6SM FEW090 BKN120=



000
FTUS45 KSLC 040902 AAA
TAFSLC
TAF AMD
KSLC 040902Z 0409/0512 10012KT P6SM -SHRA BKN060
     FM041100 15007KT P6SM VCSH BKN060
     FM041900 31008KT P6SM SCT060 BKN100
     FM050300 15008KT P6SM FEW090 BKN120=



000
FTUS45 KSLC 040520
TAFPVU
TAF
KPVU 040520Z 0406/0506 03008KT P6SM BKN100
     FM041900 21005KT P6SM SCT070 BKN100
      AMD LTD TO CLD VIS AND WIND=



000
FTUS45 KSLC 040520
TAFSLC
TAF
KSLC 040520Z 0406/0512 15007KT P6SM BKN100
     FM041900 31008KT P6SM SCT070 BKN100
     FM050300 15008KT P6SM FEW090 BKN120=



000
FTUS45 KSLC 040520
TAFSLC
TAF
KSLC 040520Z 0406/0512 15007KT P6SM BKN100
     FM041900 31008KT P6SM SCT070 BKN100
     FM050300 15008KT P6SM FEW090 BKN120=



000
FTUS45 KSLC 040520
TAFCDC
TAF
KCDC 040520Z 0406/0506 VRB05KT P6SM SCT100
     FM041900 22009KT P6SM SCT070 BKN100
     FM050300 17005KT P6SM SCT070 BKN100=



000
FTUS45 KSLC 040520
TAFOGD
TAF
KOGD 040520Z 0406/0506 17006KT P6SM BKN100
     FM041900 28006KT P6SM SCT070 BKN100
     FM050300 17006KT P6SM SCT070 BKN100=



000
FTUS45 KSLC 040520
TAFSGU
TAF
KSGU 040520Z 0406/0506 08009KT P6SM SCT200
     FM042000 25010KT P6SM SCT080 BKN100
     FM050200 VRB05KT P6SM SCT080 BKN100
      AMD LTD TO CLD VIS AND WIND=



000
FTUS45 KSLC 040520
TAFOGD
TAF
KOGD 040520Z 0406/0506 17006KT P6SM BKN100
     FM041900 28006KT P6SM SCT070 BKN100
     FM050300 17006KT P6SM SCT070 BKN100=



000
FTUS45 KSLC 040520
TAFLGU
TAF
KLGU 040520Z 0406/0506 VRB03KT P6SM FEW090 BKN120
     FM041900 VRB05KT P6SM SCT070 BKN100=



000
FTUS45 KSLC 040520
TAFCDC
TAF
KCDC 040520Z 0406/0506 VRB05KT P6SM SCT100
     FM041900 22009KT P6SM SCT070 BKN100
     FM050300 17005KT P6SM SCT070 BKN100=



000
FTUS45 KSLC 040520
TAFENV
TAF
KENV 040520Z 0406/0506 29009KT P6SM VCSH SCT070 BKN120
     FM041400 12008KT P6SM SCT070 BKN120
     FM041800 14008KT P6SM SCT070 BKN100
      AMD LTD TO CLD VIS AND WIND=



000
FTUS45 KSLC 040520
TAFSLC
TAF
KSLC 040520Z 0406/0512 15007KT P6SM BKN100
     FM041900 31008KT P6SM SCT070 BKN100
     FM050300 15008KT P6SM FEW090 BKN120=



000
FTUS45 KSLC 040520
TAFLGU
TAF
KLGU 040520Z 0406/0506 VRB03KT P6SM FEW090 BKN120
     FM041900 VRB05KT P6SM SCT070 BKN100=



000
FTUS45 KSLC 040520
TAFLGU
TAF
KLGU 040520Z 0406/0506 VRB03KT P6SM FEW090 BKN120
     FM041900 VRB05KT P6SM SCT070 BKN100=



000
FTUS45 KSLC 040520
TAFPVU
TAF
KPVU 040520Z 0406/0506 03008KT P6SM BKN100
     FM041900 21005KT P6SM SCT070 BKN100
      AMD LTD TO CLD VIS AND WIND=



000
FTUS45 KSLC 040520
TAFSGU
TAF
KSGU 040520Z 0406/0506 08009KT P6SM SCT200
     FM042000 25010KT P6SM SCT080 BKN100
     FM050200 VRB05KT P6SM SCT080 BKN100
      AMD LTD TO CLD VIS AND WIND=



000
FTUS45 KSLC 040520
TAFENV
TAF
KENV 040520Z 0406/0506 29009KT P6SM VCSH SCT070 BKN120
     FM041400 12008KT P6SM SCT070 BKN120
     FM041800 14008KT P6SM SCT070 BKN100
      AMD LTD TO CLD VIS AND WIND=



000
FTUS45 KSLC 040520
TAFOGD
TAF
KOGD 040520Z 0406/0506 17006KT P6SM BKN100
     FM041900 28006KT P6SM SCT070 BKN100
     FM050300 17006KT P6SM SCT070 BKN100=



000
FTUS45 KSLC 040520
TAFCDC
TAF
KCDC 040520Z 0406/0506 VRB05KT P6SM SCT100
     FM041900 22009KT P6SM SCT070 BKN100
     FM050300 17005KT P6SM SCT070 BKN100=



000
FTUS45 KSLC 040520
TAFPVU
TAF
KPVU 040520Z 0406/0506 03008KT P6SM BKN100
     FM041900 21005KT P6SM SCT070 BKN100
      AMD LTD TO CLD VIS AND WIND=



000
FTUS45 KSLC 040520
TAFBCE
TAF
KBCE 040520Z 0406/0506 27006KT P6SM SCT070 BKN180
     FM041800 15009KT P6SM VCTS SCT060CB BKN100
     FM050100 27007KT P6SM VCSH SCT060 BKN100=



000
FTUS45 KSLC 040520
TAFCDC
TAF
KCDC 040520Z 0406/0506 VRB05KT P6SM SCT100
     FM041900 22009KT P6SM SCT070 BKN100
     FM050300 17005KT P6SM SCT070 BKN100=



000
FTUS45 KSLC 040520
TAFENV
TAF
KENV 040520Z 0406/0506 29009KT P6SM VCSH SCT070 BKN120
     FM041400 12008KT P6SM SCT070 BKN120
     FM041800 14008KT P6SM SCT070 BKN100
      AMD LTD TO CLD VIS AND WIND=



000
FTUS45 KSLC 040520
TAFLGU
TAF
KLGU 040520Z 0406/0506 VRB03KT P6SM FEW090 BKN120
     FM041900 VRB05KT P6SM SCT070 BKN100=



000
FTUS45 KSLC 040520
TAFBCE
TAF
KBCE 040520Z 0406/0506 27006KT P6SM SCT070 BKN180
     FM041800 15009KT P6SM VCTS SCT060CB BKN100
     FM050100 27007KT P6SM VCSH SCT060 BKN100=



000
FTUS45 KSLC 040520
TAFSLC
TAF
KSLC 040520Z 0406/0512 15007KT P6SM BKN100
     FM041900 31008KT P6SM SCT070 BKN100
     FM050300 15008KT P6SM FEW090 BKN120=



000
FTUS45 KSLC 040520
TAFPVU
TAF
KPVU 040520Z 0406/0506 03008KT P6SM BKN100
     FM041900 21005KT P6SM SCT070 BKN100
      AMD LTD TO CLD VIS AND WIND=



000
FTUS45 KSLC 040520
TAFBCE
TAF
KBCE 040520Z 0406/0506 27006KT P6SM SCT070 BKN180
     FM041800 15009KT P6SM VCTS SCT060CB BKN100
     FM050100 27007KT P6SM VCSH SCT060 BKN100=



000
FTUS45 KSLC 040520
TAFBCE
TAF
KBCE 040520Z 0406/0506 27006KT P6SM SCT070 BKN180
     FM041800 15009KT P6SM VCTS SCT060CB BKN100
     FM050100 27007KT P6SM VCSH SCT060 BKN100=



000
FTUS45 KSLC 040520
TAFOGD
TAF
KOGD 040520Z 0406/0506 17006KT P6SM BKN100
     FM041900 28006KT P6SM SCT070 BKN100
     FM050300 17006KT P6SM SCT070 BKN100=



000
FTUS45 KSLC 040520
TAFSGU
TAF
KSGU 040520Z 0406/0506 08009KT P6SM SCT200
     FM042000 25010KT P6SM SCT080 BKN100
     FM050200 VRB05KT P6SM SCT080 BKN100
      AMD LTD TO CLD VIS AND WIND=



000
FTUS45 KSLC 040520
TAFENV
TAF
KENV 040520Z 0406/0506 29009KT P6SM VCSH SCT070 BKN120
     FM041400 12008KT P6SM SCT070 BKN120
     FM041800 14008KT P6SM SCT070 BKN100
      AMD LTD TO CLD VIS AND WIND=



000
FTUS45 KSLC 040410 AAC
TAFCDC
TAF AMD
KCDC 040410Z 0404/0424 VRB05KT P6SM SCT100
     FM041900 22009KT P6SM SCT070 BKN120=



000
FTUS45 KSLC 040409 AAA
TAFPVU
TAF AMD
KPVU 040409Z 0404/0424 31009KT P6SM VCSH SCT070 BKN120
     FM040500 VRB04KT P6SM BKN150
     FM041900 26005KT P6SM SCT070 BKN120
      AMD LTD TO CLD VIS AND WIND=



000
FTUS45 KSLC 040409 AAA
TAFPVU
TAF AMD
KPVU 040409Z 0404/0424 31009KT P6SM VCSH SCT070 BKN120
     FM040500 VRB04KT P6SM BKN150
     FM041900 26005KT P6SM SCT070 BKN120
      AMD LTD TO CLD VIS AND WIND=



000
FTUS45 KSLC 040402 AAD
TAFSLC
TAF AMD
KSLC 040402Z 0404/0506 15007KT P6SM BKN150
     FM041900 31008KT P6SM SCT070 BKN120
     FM050300 15008KT P6SM FEW090 BKN120=



000
FTUS45 KSLC 040402 AAD
TAFSLC
TAF AMD
KSLC 040402Z 0404/0506 15007KT P6SM BKN150
     FM041900 31008KT P6SM SCT070 BKN120
     FM050300 15008KT P6SM FEW090 BKN120=



000
FTUS45 KSLC 040349 AAC
TAFSLC
TAF AMD
KSLC 040349Z 0404/0506 34009KT P6SM FEW070 BKN120
     FM040415 15007KT P6SM BKN150
     FM041900 31008KT P6SM SCT070 BKN120
     FM050300 15008KT P6SM FEW090 BKN120=



000
FTUS45 KSLC 040349 AAC
TAFSLC
TAF AMD
KSLC 040349Z 0404/0506 34009KT P6SM FEW070 BKN120
     FM040415 15007KT P6SM BKN150
     FM041900 31008KT P6SM SCT070 BKN120
     FM050300 15008KT P6SM FEW090 BKN120=



000
FTUS45 KSLC 040349 AAC
TAFSLC
TAF AMD
KSLC 040349Z 0404/0506 34009KT P6SM FEW070 BKN120
     FM040415 15007KT P6SM BKN150
     FM041900 31008KT P6SM SCT070 BKN120
     FM050300 15008KT P6SM FEW090 BKN120=



000
FTUS45 KSLC 040324 AAB
TAFSGU
TAF AMD
KSGU 040324Z 0403/0424 11012G20KT P6SM VCSH SCT080 BKN100
     FM040600 08005KT P6SM SCT200
     FM042000 25010KT P6SM SCT080 BKN150
      AMD LTD TO CLD VIS AND WIND=



000
FTUS45 KSLC 040324 AAB
TAFSGU
TAF AMD
KSGU 040324Z 0403/0424 11012G20KT P6SM VCSH SCT080 BKN100
     FM040600 08005KT P6SM SCT200
     FM042000 25010KT P6SM SCT080 BKN150
      AMD LTD TO CLD VIS AND WIND=



000
FTUS45 KSLC 040324 AAB
TAFSGU
TAF AMD
KSGU 040324Z 0403/0424 11012G20KT P6SM VCSH SCT080 BKN100
     FM040600 08005KT P6SM SCT200
     FM042000 25010KT P6SM SCT080 BKN150
      AMD LTD TO CLD VIS AND WIND=



000
FTUS45 KSLC 040323 AAB
TAFCDC
TAF AMD
KCDC 040323Z 0403/0424 09012KT P6SM BKN100
     FM040600 16006KT P6SM SCT100
     FM041900 22009KT P6SM SCT070 BKN120=



000
FTUS45 KSLC 040323 AAB
TAFCDC
TAF AMD
KCDC 040323Z 0403/0424 09012KT P6SM BKN100
     FM040600 16006KT P6SM SCT100
     FM041900 22009KT P6SM SCT070 BKN120=



000
FTUS45 KSLC 040323 AAB
TAFCDC
TAF AMD
KCDC 040323Z 0403/0424 09012KT P6SM BKN100
     FM040600 16006KT P6SM SCT100
     FM041900 22009KT P6SM SCT070 BKN120=



000
FTUS45 KSLC 040323 AAB
TAFCDC
TAF AMD
KCDC 040323Z 0403/0424 09012KT P6SM BKN100
     FM040600 16006KT P6SM SCT100
     FM041900 22009KT P6SM SCT070 BKN120=



000
FTUS45 KSLC 040302 CCA
TAFOGD
TAF COR
KOGD 040302Z 0403/0424 35006KT P6SM FEW070 SCT120
     FM040400 17006KT P6SM BKN150
     FM041900 28006KT P6SM SCT070 BKN120=



000
FTUS45 KSLC 040302 CCA
TAFOGD
TAF COR
KOGD 040302Z 0403/0424 35006KT P6SM FEW070 SCT120
     FM040400 17006KT P6SM BKN150
     FM041900 28006KT P6SM SCT070 BKN120=



000
FTUS45 KSLC 040301 AAB
TAFSLC
TAF AMD
KSLC 040301Z 0403/0506 34009KT P6SM FEW070 BKN120
     FM040500 15007KT P6SM BKN150
     FM041900 31008KT P6SM SCT070 BKN120
     FM050300 15008KT P6SM FEW090 BKN120=



000
FTUS45 KSLC 040301 AAB
TAFSLC
TAF AMD
KSLC 040301Z 0403/0506 34009KT P6SM FEW070 BKN120
     FM040500 15007KT P6SM BKN150
     FM041900 31008KT P6SM SCT070 BKN120
     FM050300 15008KT P6SM FEW090 BKN120=



000
FTUS45 KSLC 040301 AAB
TAFOGD
TAF AMD
KOGD 040301Z 0403/0424 35012KT P6SM FEW070 SCT120
     FM040400 17006KT P6SM BKN150
     FM041900 28006KT P6SM SCT070 BKN120=



000
FTUS45 KSLC 040301 AAB
TAFOGD
TAF AMD
KOGD 040301Z 0403/0424 35012KT P6SM FEW070 SCT120
     FM040400 17006KT P6SM BKN150
     FM041900 28006KT P6SM SCT070 BKN120=



000
FTUS45 KSLC 040137 AAA
TAFSGU
TAF AMD
KSGU 040137Z 0402/0424 14012G20KT P6SM VCSH SCT080 BKN150
     FM040400 08005KT P6SM SCT200
     FM042000 25010KT P6SM SCT080 BKN150
      AMD LTD TO CLD VIS AND WIND=



000
FTUS45 KSLC 040137 AAA
TAFSGU
TAF AMD
KSGU 040137Z 0402/0424 14012G20KT P6SM VCSH SCT080 BKN150
     FM040400 08005KT P6SM SCT200
     FM042000 25010KT P6SM SCT080 BKN150
      AMD LTD TO CLD VIS AND WIND=



000
FTUS45 KSLC 040111 AAB
TAFSLC
TAF AMD
KSLC 040111Z 0401/0506 34013KT P6SM VCSH SCT070 BKN120
     FM040300 15007KT P6SM BKN150
     FM041900 31008KT P6SM SCT070 BKN120
     FM050300 15008KT P6SM FEW090 BKN120=



000
FTUS45 KSLC 040111 AAB
TAFSLC
TAF AMD
KSLC 040111Z 0401/0506 34013KT P6SM VCSH SCT070 BKN120
     FM040300 15007KT P6SM BKN150
     FM041900 31008KT P6SM SCT070 BKN120
     FM050300 15008KT P6SM FEW090 BKN120=



000
FTUS45 KSLC 040111 AAB
TAFSLC
TAF AMD
KSLC 040111Z 0401/0506 34013KT P6SM VCSH SCT070 BKN120
     FM040300 15007KT P6SM BKN150
     FM041900 31008KT P6SM SCT070 BKN120
     FM050300 15008KT P6SM FEW090 BKN120=



000
FTUS45 KSLC 040111 AAB
TAFSLC
TAF AMD
KSLC 040111Z 0401/0506 34013KT P6SM VCSH SCT070 BKN120
     FM040300 15007KT P6SM BKN150
     FM041900 31008KT P6SM SCT070 BKN120
     FM050300 15008KT P6SM FEW090 BKN120=



000
FTUS45 KSLC 040107 AAA
TAFOGD
TAF AMD
KOGD 040107Z 0401/0424 35012KT P6SM FEW070 SCT120
     FM040300 17006KT P6SM BKN150
     FM041900 28006KT P6SM SCT070 BKN120=



000
FTUS45 KSLC 040107 AAA
TAFOGD
TAF AMD
KOGD 040107Z 0401/0424 35012KT P6SM FEW070 SCT120
     FM040300 17006KT P6SM BKN150
     FM041900 28006KT P6SM SCT070 BKN120=



000
FTUS45 KSLC 040107 AAA
TAFOGD
TAF AMD
KOGD 040107Z 0401/0424 35012KT P6SM FEW070 SCT120
     FM040300 17006KT P6SM BKN150
     FM041900 28006KT P6SM SCT070 BKN120=



000
FTUS45 KSLC 040051 AAA
TAFCDC
TAF AMD
KCDC 040051Z 0401/0424 14014G22KT P6SM FEW080 BKN120
     FM040300 16006KT P6SM BKN180
     FM041900 22009KT P6SM SCT070 BKN120=



000
FTUS45 KSLC 040051 AAA
TAFCDC
TAF AMD
KCDC 040051Z 0401/0424 14014G22KT P6SM FEW080 BKN120
     FM040300 16006KT P6SM BKN180
     FM041900 22009KT P6SM SCT070 BKN120=



000
FTUS45 KSLC 040051 AAA
TAFCDC
TAF AMD
KCDC 040051Z 0401/0424 14014G22KT P6SM FEW080 BKN120
     FM040300 16006KT P6SM BKN180
     FM041900 22009KT P6SM SCT070 BKN120=



000
FTUS45 KSLC 040051 AAA
TAFCDC
TAF AMD
KCDC 040051Z 0401/0424 14014G22KT P6SM FEW080 BKN120
     FM040300 16006KT P6SM BKN180
     FM041900 22009KT P6SM SCT070 BKN120=



000
FTUS45 KSLC 040042 AAA
TAFENV
TAF AMD
KENV 040042Z 0401/0424 02014G22KT P6SM VCSH SCT070 BKN120
     FM040300 01009KT P6SM VCSH SCT070 BKN120
     FM041600 09008KT P6SM SCT070 BKN120
      AMD LTD TO CLD VIS AND WIND=



000
FTUS45 KSLC 040042 AAA
TAFENV
TAF AMD
KENV 040042Z 0401/0424 02014G22KT P6SM VCSH SCT070 BKN120
     FM040300 01009KT P6SM VCSH SCT070 BKN120
     FM041600 09008KT P6SM SCT070 BKN120
      AMD LTD TO CLD VIS AND WIND=



000
FTUS45 KSLC 040042 AAA
TAFENV
TAF AMD
KENV 040042Z 0401/0424 02014G22KT P6SM VCSH SCT070 BKN120
     FM040300 01009KT P6SM VCSH SCT070 BKN120
     FM041600 09008KT P6SM SCT070 BKN120
      AMD LTD TO CLD VIS AND WIND=



000
FTUS45 KSLC 040042 AAA
TAFENV
TAF AMD
KENV 040042Z 0401/0424 02014G22KT P6SM VCSH SCT070 BKN120
     FM040300 01009KT P6SM VCSH SCT070 BKN120
     FM041600 09008KT P6SM SCT070 BKN120
      AMD LTD TO CLD VIS AND WIND=



000
FTUS45 KSLC 040013 AAA
TAFSLC
TAF AMD
KSLC 040013Z 0400/0506 34007KT P6SM VCSH SCT070 BKN120
     FM040300 15007KT P6SM BKN150
     FM041900 31008KT P6SM SCT070 BKN120
     FM050300 15008KT P6SM FEW090 BKN120=



000
FTUS45 KSLC 040013 AAA
TAFSLC
TAF AMD
KSLC 040013Z 0400/0506 34007KT P6SM VCSH SCT070 BKN120
     FM040300 15007KT P6SM BKN150
     FM041900 31008KT P6SM SCT070 BKN120
     FM050300 15008KT P6SM FEW090 BKN120=



000
FTUS45 KSLC 040013 AAA
TAFSLC
TAF AMD
KSLC 040013Z 0400/0506 34007KT P6SM VCSH SCT070 BKN120
     FM040300 15007KT P6SM BKN150
     FM041900 31008KT P6SM SCT070 BKN120
     FM050300 15008KT P6SM FEW090 BKN120=



000
FTUS45 KSLC 040013 AAA
TAFSLC
TAF AMD
KSLC 040013Z 0400/0506 34007KT P6SM VCSH SCT070 BKN120
     FM040300 15007KT P6SM BKN150
     FM041900 31008KT P6SM SCT070 BKN120
     FM050300 15008KT P6SM FEW090 BKN120=



000
FTUS45 KSLC 032335
TAFBCE
TAF
KBCE 032335Z 0400/0424 24008KT P6SM VCSH SCT070 BKN120
     FM040100 25006KT P6SM SCT070 BKN180
     FM041800 22010KT P6SM VCSH SCT060 BKN100 PROB30 0418/0422 -TSRA
      BKN060CB=



000
FTUS45 KSLC 032335
TAFSLC
TAF
KSLC 032335Z 0400/0506 19008KT P6SM VCSH SCT070 BKN120
     FM040300 15007KT P6SM BKN150
     FM041900 31008KT P6SM SCT070 BKN120
     FM050300 15008KT P6SM FEW090 BKN120=



000
FTUS45 KSLC 032335
TAFPVU
TAF
KPVU 032335Z 0400/0424 29009KT P6SM VCSH SCT070 BKN120
     FM040300 VRB04KT P6SM BKN150
     FM041900 26005KT P6SM SCT070 BKN120
      AMD LTD TO CLD VIS AND WIND=



000
FTUS45 KSLC 032335
TAFENV
TAF
KENV 032335Z 0400/0424 14007KT P6SM VCSH SCT070 BKN120
     FM040100 30006KT P6SM VCSH SCT070 BKN120
     FM041600 09008KT P6SM SCT070 BKN120
      AMD LTD TO CLD VIS AND WIND=



000
FTUS45 KSLC 032335
TAFSLC
TAF
KSLC 032335Z 0400/0506 19008KT P6SM VCSH SCT070 BKN120
     FM040300 15007KT P6SM BKN150
     FM041900 31008KT P6SM SCT070 BKN120
     FM050300 15008KT P6SM FEW090 BKN120=



000
FTUS45 KSLC 032335
TAFSGU
TAF
KSGU 032335Z 0400/0424 14008KT P6SM FEW080 BKN180
     FM040400 08005KT P6SM SCT200
     FM042000 25010KT P6SM SCT080 BKN150
      AMD LTD TO CLD VIS AND WIND=



000
FTUS45 KSLC 032335
TAFPVU
TAF
KPVU 032335Z 0400/0424 29009KT P6SM VCSH SCT070 BKN120
     FM040300 VRB04KT P6SM BKN150
     FM041900 26005KT P6SM SCT070 BKN120
      AMD LTD TO CLD VIS AND WIND=



000
FTUS45 KSLC 032335
TAFENV
TAF
KENV 032335Z 0400/0424 14007KT P6SM VCSH SCT070 BKN120
     FM040100 30006KT P6SM VCSH SCT070 BKN120
     FM041600 09008KT P6SM SCT070 BKN120
      AMD LTD TO CLD VIS AND WIND=



000
FTUS45 KSLC 032335
TAFOGD
TAF
KOGD 032335Z 0400/0424 30015G24KT P6SM FEW070 SCT120
     FM040100 29008KT P6SM SCT070 BKN150
     FM040300 17006KT P6SM BKN150
     FM041900 28006KT P6SM SCT070 BKN120=



000
FTUS45 KSLC 032335
TAFCDC
TAF
KCDC 032335Z 0400/0424 22012KT P6SM FEW080 BKN120
     FM040200 17006KT P6SM BKN180
     FM041900 22009KT P6SM SCT070 BKN120=



000
FTUS45 KSLC 032335
TAFBCE
TAF
KBCE 032335Z 0400/0424 24008KT P6SM VCSH SCT070 BKN120
     FM040100 25006KT P6SM SCT070 BKN180
     FM041800 22010KT P6SM VCSH SCT060 BKN100 PROB30 0418/0422 -TSRA
      BKN060CB=



000
FTUS45 KSLC 032335
TAFLGU
TAF
KLGU 032335Z 0400/0424 01008KT P6SM VCSH SCT070 BKN120
     FM040300 VRB03KT P6SM FEW090 BKN120
     FM041900 VRB05KT P6SM SCT070 BKN120=



000
FTUS45 KSLC 032335
TAFOGD
TAF
KOGD 032335Z 0400/0424 30015G24KT P6SM FEW070 SCT120
     FM040100 29008KT P6SM SCT070 BKN150
     FM040300 17006KT P6SM BKN150
     FM041900 28006KT P6SM SCT070 BKN120=



000
FTUS45 KSLC 032335
TAFSGU
TAF
KSGU 032335Z 0400/0424 14008KT P6SM FEW080 BKN180
     FM040400 08005KT P6SM SCT200
     FM042000 25010KT P6SM SCT080 BKN150
      AMD LTD TO CLD VIS AND WIND=



000
FTUS45 KSLC 032335
TAFLGU
TAF
KLGU 032335Z 0400/0424 01008KT P6SM VCSH SCT070 BKN120
     FM040300 VRB03KT P6SM FEW090 BKN120
     FM041900 VRB05KT P6SM SCT070 BKN120=



000
FTUS45 KSLC 032335
TAFCDC
TAF
KCDC 032335Z 0400/0424 22012KT P6SM FEW080 BKN120
     FM040200 17006KT P6SM BKN180
     FM041900 22009KT P6SM SCT070 BKN120=



000
FTUS45 KSLC 032316 AAA
TAFOGD
TAF AMD
KOGD 032316Z 0323/0418 30015G24KT P6SM FEW070 SCT120
     FM040100 29008KT P6SM SCT070 BKN150
     FM040200 17006KT P6SM BKN120=



000
FTUS45 KSLC 032316 AAA
TAFOGD
TAF AMD
KOGD 032316Z 0323/0418 30015G24KT P6SM FEW070 SCT120
     FM040100 29008KT P6SM SCT070 BKN150
     FM040200 17006KT P6SM BKN120=



000
FTUS45 KSLC 032316 AAA
TAFOGD
TAF AMD
KOGD 032316Z 0323/0418 30015G24KT P6SM FEW070 SCT120
     FM040100 29008KT P6SM SCT070 BKN150
     FM040200 17006KT P6SM BKN120=



000
FTUS45 KSLC 032316 AAA
TAFOGD
TAF AMD
KOGD 032316Z 0323/0418 30015G24KT P6SM FEW070 SCT120
     FM040100 29008KT P6SM SCT070 BKN150
     FM040200 17006KT P6SM BKN120=



000
FTUS45 KSLC 032250 AAB
TAFLGU
TAF AMD
KLGU 032250Z 0323/0418 36012G20KT P6SM VCSH SCT070 BKN120
      TEMPO 0323/0324 VRB15G25KT -TSRA BKN070CB
     FM040200 VRB03KT P6SM BKN120=



000
FTUS45 KSLC 032250 AAB
TAFLGU
TAF AMD
KLGU 032250Z 0323/0418 36012G20KT P6SM VCSH SCT070 BKN120
      TEMPO 0323/0324 VRB15G25KT -TSRA BKN070CB
     FM040200 VRB03KT P6SM BKN120=



000
FTUS45 KSLC 032237 AAB
TAFSLC
TAF AMD
KSLC 032237Z 0323/0424 20014G27KT P6SM SCT070 BKN120
     FM032300 19011KT P6SM SCT070 BKN120
     FM040300 15007KT P6SM BKN120
     FM041900 31008KT P6SM SCT070 BKN120=



000
FTUS45 KSLC 032237 AAB
TAFSLC
TAF AMD
KSLC 032237Z 0323/0424 20014G27KT P6SM SCT070 BKN120
     FM032300 19011KT P6SM SCT070 BKN120
     FM040300 15007KT P6SM BKN120
     FM041900 31008KT P6SM SCT070 BKN120=



000
FTUS45 KSLC 032135 AAA
TAFSGU
TAF AMD
KSGU 032135Z 0322/0418 10010KT P6SM VCSH SCT080 BKN140
     FM040000 24012KT P6SM SCT080 BKN140
     FM040400 VRB05KT P6SM SCT140
     FM040600 08006KT P6SM SCT140
      AMD LTD TO CLD VIS AND WIND=



000
FTUS45 KSLC 032135 AAA
TAFSGU
TAF AMD
KSGU 032135Z 0322/0418 10010KT P6SM VCSH SCT080 BKN140
     FM040000 24012KT P6SM SCT080 BKN140
     FM040400 VRB05KT P6SM SCT140
     FM040600 08006KT P6SM SCT140
      AMD LTD TO CLD VIS AND WIND=



000
FTUS45 KSLC 032135 AAA
TAFSGU
TAF AMD
KSGU 032135Z 0322/0418 10010KT P6SM VCSH SCT080 BKN140
     FM040000 24012KT P6SM SCT080 BKN140
     FM040400 VRB05KT P6SM SCT140
     FM040600 08006KT P6SM SCT140
      AMD LTD TO CLD VIS AND WIND=



000
FTUS45 KSLC 032135 AAA
TAFSGU
TAF AMD
KSGU 032135Z 0322/0418 10010KT P6SM VCSH SCT080 BKN140
     FM040000 24012KT P6SM SCT080 BKN140
     FM040400 VRB05KT P6SM SCT140
     FM040600 08006KT P6SM SCT140
      AMD LTD TO CLD VIS AND WIND=



000
FTUS45 KSLC 032130 AAB
TAFSLC
TAF AMD
KSLC 032130Z 0322/0424 08010KT P6SM SCT070 OVC080
     FM040300 15007KT P6SM BKN120
     FM041900 31008KT P6SM SCT070 BKN120=



000
FTUS45 KSLC 032130 AAB
TAFSLC
TAF AMD
KSLC 032130Z 0322/0424 08010KT P6SM SCT070 OVC080
     FM040300 15007KT P6SM BKN120
     FM041900 31008KT P6SM SCT070 BKN120=



000
FTUS45 KSLC 032130 AAB
TAFSLC
TAF AMD
KSLC 032130Z 0322/0424 08010KT P6SM SCT070 OVC080
     FM040300 15007KT P6SM BKN120
     FM041900 31008KT P6SM SCT070 BKN120=



000
FTUS45 KSLC 032126 AAA
TAFLGU
TAF AMD
KLGU 032126Z 0321/0418 36012G20KT P6SM VCSH SCT070 BKN120
     FM040200 VRB03KT P6SM BKN120=



000
FTUS45 KSLC 032126 AAA
TAFLGU
TAF AMD
KLGU 032126Z 0321/0418 36012G20KT P6SM VCSH SCT070 BKN120
     FM040200 VRB03KT P6SM BKN120=



000
FTUS45 KSLC 032126 AAA
TAFLGU
TAF AMD
KLGU 032126Z 0321/0418 36012G20KT P6SM VCSH SCT070 BKN120
     FM040200 VRB03KT P6SM BKN120=



000
FTUS45 KSLC 032126 AAA
TAFLGU
TAF AMD
KLGU 032126Z 0321/0418 36012G20KT P6SM VCSH SCT070 BKN120
     FM040200 VRB03KT P6SM BKN120=



000
FTUS45 KSLC 032031 AAC
TAFSLC
TAF AMD
KSLC 032031Z 0321/0424 04018G30KT P6SM -SHRA SCT070 OVC080
     FM032200 32008KT P6SM VCSH SCT070 BKN120
     FM040300 15005KT P6SM BKN120
     FM041900 31008KT P6SM SCT070 BKN120=



000
FTUS45 KSLC 032031 AAC
TAFSLC
TAF AMD
KSLC 032031Z 0321/0424 04018G30KT P6SM -SHRA SCT070 OVC080
     FM032200 32008KT P6SM VCSH SCT070 BKN120
     FM040300 15005KT P6SM BKN120
     FM041900 31008KT P6SM SCT070 BKN120=



000
FTUS45 KSLC 032024 AAB
TAFENV
TAF AMD
KENV 032024Z 0320/0418 24014G30KT 3SM TSRA BKN070CB OVC100
     FM032100 02010KT P6SM VCSH SCT070 BKN100
     FM032300 VRB05KT P6SM VCSH SCT070 BKN120
     FM041600 09008KT P6SM SCT070 BKN120
      AMD LTD TO CLD VIS AND WIND=



000
FTUS45 KSLC 032012 AAD
TAFSLC
TAF AMD
KSLC 032012Z 0320/0424 26018G30KT 3SM TSRA BKN070CB OVC090
     FM032100 32008KT P6SM VCSH SCT070 BKN120
     FM040300 15005KT P6SM BKN120
     FM041900 31008KT P6SM SCT070 BKN120=



000
FTUS45 KSLC 032012 AAD
TAFSLC
TAF AMD
KSLC 032012Z 0320/0424 26018G30KT 3SM TSRA BKN070CB OVC090
     FM032100 32008KT P6SM VCSH SCT070 BKN120
     FM040300 15005KT P6SM BKN120
     FM041900 31008KT P6SM SCT070 BKN120=



000
FTUS45 KSLC 032012 AAD
TAFSLC
TAF AMD
KSLC 032012Z 0320/0424 26018G30KT 3SM TSRA BKN070CB OVC090
     FM032100 32008KT P6SM VCSH SCT070 BKN120
     FM040300 15005KT P6SM BKN120
     FM041900 31008KT P6SM SCT070 BKN120=



000
FTUS45 KSLC 031906 AAC
TAFSLC
TAF AMD
KSLC 031906Z 0319/0424 32010G18KT P6SM VCSH SCT070 BKN100
     FM032100 32008KT P6SM VCSH SCT070 BKN120
     FM040300 15005KT P6SM BKN120
     FM041900 31008KT P6SM SCT070 BKN120=



000
FTUS45 KSLC 031906 AAC
TAFSLC
TAF AMD
KSLC 031906Z 0319/0424 32010G18KT P6SM VCSH SCT070 BKN100
     FM032100 32008KT P6SM VCSH SCT070 BKN120
     FM040300 15005KT P6SM BKN120
     FM041900 31008KT P6SM SCT070 BKN120=



000
FTUS45 KSLC 031906 AAC
TAFSLC
TAF AMD
KSLC 031906Z 0319/0424 32010G18KT P6SM VCSH SCT070 BKN100
     FM032100 32008KT P6SM VCSH SCT070 BKN120
     FM040300 15005KT P6SM BKN120
     FM041900 31008KT P6SM SCT070 BKN120=



000
FTUS45 KSLC 031906 AAC
TAFSLC
TAF AMD
KSLC 031906Z 0319/0424 32010G18KT P6SM VCSH SCT070 BKN100
     FM032100 32008KT P6SM VCSH SCT070 BKN120
     FM040300 15005KT P6SM BKN120
     FM041900 31008KT P6SM SCT070 BKN120=



000
FTUS45 KSLC 031859 AAB
TAFBCE
TAF AMD
KBCE 031859Z 0319/0418 04010G18KT P6SM -RA SCT060 BKN080
      TEMPO 0319/0321 3SM -TSRA BKN060CB OVC080
     FM032100 24010KT P6SM VCSH SCT060 BKN100
     FM040000 25006KT P6SM BKN100
     FM041600 23010KT P6SM SCT060 BKN100=



000
FTUS45 KSLC 031859 AAB
TAFBCE
TAF AMD
KBCE 031859Z 0319/0418 04010G18KT P6SM -RA SCT060 BKN080
      TEMPO 0319/0321 3SM -TSRA BKN060CB OVC080
     FM032100 24010KT P6SM VCSH SCT060 BKN100
     FM040000 25006KT P6SM BKN100
     FM041600 23010KT P6SM SCT060 BKN100=



000
FTUS45 KSLC 031817 AAA
TAFENV
TAF AMD
KENV 031817Z 0318/0418 12008KT P6SM SCT070 BKN120
      TEMPO 0318/0320 27014G30KT 4SM -TSRA BKN070CB OVC100
     FM032000 12008KT P6SM VCSH SCT070 BKN120
     FM040200 34010KT P6SM BKN120
     FM041600 09008KT P6SM SCT070 BKN120
      AMD LTD TO CLD VIS AND WIND=



000
FTUS45 KSLC 031817 AAA
TAFENV
TAF AMD
KENV 031817Z 0318/0418 12008KT P6SM SCT070 BKN120
      TEMPO 0318/0320 27014G30KT 4SM -TSRA BKN070CB OVC100
     FM032000 12008KT P6SM VCSH SCT070 BKN120
     FM040200 34010KT P6SM BKN120
     FM041600 09008KT P6SM SCT070 BKN120
      AMD LTD TO CLD VIS AND WIND=



000
FTUS45 KSLC 031805 AAA
TAFBCE
TAF AMD
KBCE 031805Z 0318/0418 26012G25KT 3SM TSRA BKN060CB OVC080
     FM031900 24010G18KT P6SM VCTS SCT060CB BKN100
     FM040000 25006KT P6SM BKN100
     FM041600 23010KT P6SM SCT060 BKN100=



000
FTUS45 KSLC 031805 AAA
TAFBCE
TAF AMD
KBCE 031805Z 0318/0418 26012G25KT 3SM TSRA BKN060CB OVC080
     FM031900 24010G18KT P6SM VCTS SCT060CB BKN100
     FM040000 25006KT P6SM BKN100
     FM041600 23010KT P6SM SCT060 BKN100=



000
FTUS45 KSLC 031730
TAFSLC
TAF
KSLC 031730Z 0318/0424 16010KT P6SM SCT070 BKN140
     FM031900 32008KT P6SM SCT070 BKN120
     FM040300 15005KT P6SM BKN120
     FM041900 31008KT P6SM SCT070 BKN120=



000
FTUS45 KSLC 031730
TAFOGD
TAF
KOGD 031730Z 0318/0418 VRB05KT P6SM SCT070 BKN120
     FM031900 26008KT P6SM SCT070 BKN120
     FM040200 17006KT P6SM BKN120=



000
FTUS45 KSLC 031730
TAFLGU
TAF
KLGU 031730Z 0318/0418 VRB05KT P6SM SCT070 BKN120
     FM040200 VRB03KT P6SM BKN120=



000
FTUS45 KSLC 031730
TAFENV
TAF
KENV 031730Z 0318/0418 10007KT P6SM VCSH BKN120
     FM040200 34010KT P6SM BKN120
     FM041600 09008KT P6SM SCT070 BKN120
      AMD LTD TO CLD VIS AND WIND=



000
FTUS45 KSLC 031730
TAFOGD
TAF
KOGD 031730Z 0318/0418 VRB05KT P6SM SCT070 BKN120
     FM031900 26008KT P6SM SCT070 BKN120
     FM040200 17006KT P6SM BKN120=



000
FTUS45 KSLC 031730
TAFENV
TAF
KENV 031730Z 0318/0418 10007KT P6SM VCSH BKN120
     FM040200 34010KT P6SM BKN120
     FM041600 09008KT P6SM SCT070 BKN120
      AMD LTD TO CLD VIS AND WIND=



000
FTUS45 KSLC 031730
TAFSLC
TAF
KSLC 031730Z 0318/0424 16010KT P6SM SCT070 BKN140
     FM031900 32008KT P6SM SCT070 BKN120
     FM040300 15005KT P6SM BKN120
     FM041900 31008KT P6SM SCT070 BKN120=



000
FTUS45 KSLC 031730
TAFPVU
TAF
KPVU 031730Z 0318/0418 VRB05KT P6SM SCT070 BKN120
     FM040300 VRB04KT P6SM BKN120
     FM041600 17006KT P6SM BKN120
      AMD LTD TO CLD VIS AND WIND=



000
FTUS45 KSLC 031730
TAFCDC
TAF
KCDC 031730Z 0318/0418 22010G18KT P6SM VCSH SCT060 BKN100
     FM040200 20008KT P6SM BKN100=



000
FTUS45 KSLC 031730
TAFSGU
TAF
KSGU 031730Z 0318/0418 VRB05KT P6SM VCTS SCT070CB BKN140
     FM032000 24012G20KT P6SM SCT080 BKN140
     FM040400 VRB05KT P6SM SCT140
     FM040600 08006KT P6SM SCT140
      AMD LTD TO CLD VIS AND WIND=



000
FTUS45 KSLC 031730
TAFCDC
TAF
KCDC 031730Z 0318/0418 22010G18KT P6SM VCSH SCT060 BKN100
     FM040200 20008KT P6SM BKN100=



000
FTUS45 KSLC 031730
TAFPVU
TAF
KPVU 031730Z 0318/0418 VRB05KT P6SM SCT070 BKN120
     FM040300 VRB04KT P6SM BKN120
     FM041600 17006KT P6SM BKN120
      AMD LTD TO CLD VIS AND WIND=



000
FTUS45 KSLC 031730
TAFLGU
TAF
KLGU 031730Z 0318/0418 VRB05KT P6SM SCT070 BKN120
     FM040200 VRB03KT P6SM BKN120=



000
FTUS45 KSLC 031730
TAFBCE
TAF
KBCE 031730Z 0318/0418 26005KT P6SM VCTS SCT060CB BKN080
     FM032000 24010G18KT P6SM VCSH SCT070 BKN100
     FM040000 25006KT P6SM BKN100
     FM041600 23010KT P6SM SCT060 BKN100=



000
FTUS45 KSLC 031730
TAFBCE
TAF
KBCE 031730Z 0318/0418 26005KT P6SM VCTS SCT060CB BKN080
     FM032000 24010G18KT P6SM VCSH SCT070 BKN100
     FM040000 25006KT P6SM BKN100
     FM041600 23010KT P6SM SCT060 BKN100=



000
FTUS45 KSLC 031730
TAFSGU
TAF
KSGU 031730Z 0318/0418 VRB05KT P6SM VCTS SCT070CB BKN140
     FM032000 24012G20KT P6SM SCT080 BKN140
     FM040400 VRB05KT P6SM SCT140
     FM040600 08006KT P6SM SCT140
      AMD LTD TO CLD VIS AND WIND=



000
FTUS45 KSLC 031552 AAA
TAFSGU
TAF AMD
KSGU 031552Z 0316/0412 11007KT P6SM VCSH SCT070 BKN120
     FM032000 24012G20KT P6SM SCT080 BKN140
     FM040100 22010KT P6SM BKN150
     FM040400 12005KT P6SM SCT150
      AMD LTD TO CLD VIS AND WIND=



000
FTUS45 KSLC 031548 AAA
TAFCDC
TAF AMD
KCDC 031548Z 0316/0412 21015G25KT P6SM VCSH SCT070 BKN120
     FM040200 20010KT P6SM BKN140=



000
FTUS45 KSLC 031548 AAA
TAFCDC
TAF AMD
KCDC 031548Z 0316/0412 21015G25KT P6SM VCSH SCT070 BKN120
     FM040200 20010KT P6SM BKN140=



000
FTUS45 KSLC 031548 AAA
TAFCDC
TAF AMD
KCDC 031548Z 0316/0412 21015G25KT P6SM VCSH SCT070 BKN120
     FM040200 20010KT P6SM BKN140=



000
FTUS45 KSLC 031548 AAA
TAFCDC
TAF AMD
KCDC 031548Z 0316/0412 21015G25KT P6SM VCSH SCT070 BKN120
     FM040200 20010KT P6SM BKN140=



    US Dept of Commerce
    National Oceanic and Atmospheric Administration
    National Weather Service
    1325 East West Highway
    Silver Spring, MD 20910
    Page Author: NWS Internet Services Team
Disclaimer
Information Quality
Credits
Glossary
Privacy Policy
Freedom of Information Act (FOIA)
About Us
Career Opportunities